<?xml version="1.0" encoding="UTF-8" standalone="no" ?>
<gpx xmlns="http://www.topografix.com/GPX/1/1" xmlns:xsi="http://www.w3.org/2001/XMLSchema-instance" xsi:schemaLocation="http://www.topografix.com/GPX/1/1 http://www.topografix.com/GPX/1/1/gpx.xsd" version="1.1" creator="VisuGPX - https://www.visugpx.com">
  <metadata>
    <name>ST_RAD_15km -300m</name>
    <desc><![CDATA[sortie 15km]]></desc>
  </metadata>
  <trk>
    <name><![CDATA[st RA 15km -]]></name>
    <trkseg>
      <trkpt lat="44.33552" lon="2.62915">
        <ele>639.4140625</ele>
        <time>2014-06-28T04:41:35Z</time>
      </trkpt>
      <trkpt lat="44.33552" lon="2.62911">
        <ele>640.3754883</ele>
        <time>2014-06-28T04:41:37Z</time>
      </trkpt>
      <trkpt lat="44.33546" lon="2.62895">
        <ele>645.1818848</ele>
        <time>2014-06-28T04:41:43Z</time>
      </trkpt>
      <trkpt lat="44.33541" lon="2.62881">
        <ele>646.1433105</ele>
        <time>2014-06-28T04:41:48Z</time>
      </trkpt>
      <trkpt lat="44.33541" lon="2.62878">
        <ele>646.6240234</ele>
        <time>2014-06-28T04:41:49Z</time>
      </trkpt>
      <trkpt lat="44.33542" lon="2.6287">
        <ele>649.5078125</ele>
        <time>2014-06-28T04:41:53Z</time>
      </trkpt>
      <trkpt lat="44.3355" lon="2.6286">
        <ele>652.8725586</ele>
        <time>2014-06-28T04:41:59Z</time>
      </trkpt>
      <trkpt lat="44.33554" lon="2.62859">
        <ele>655.7565918</ele>
        <time>2014-06-28T04:42:01Z</time>
      </trkpt>
      <trkpt lat="44.3356" lon="2.62844">
        <ele>650.4692383</ele>
        <time>2014-06-28T04:42:05Z</time>
      </trkpt>
      <trkpt lat="44.33566" lon="2.62832">
        <ele>651.9111328</ele>
        <time>2014-06-28T04:42:12Z</time>
      </trkpt>
      <trkpt lat="44.33573" lon="2.6282">
        <ele>653.3532715</ele>
        <time>2014-06-28T04:42:18Z</time>
      </trkpt>
      <trkpt lat="44.33581" lon="2.62815">
        <ele>654.3146973</ele>
        <time>2014-06-28T04:42:23Z</time>
      </trkpt>
      <trkpt lat="44.33596" lon="2.62807">
        <ele>656.2370605</ele>
        <time>2014-06-28T04:42:31Z</time>
      </trkpt>
      <trkpt lat="44.33605" lon="2.62805">
        <ele>656.7177734</ele>
        <time>2014-06-28T04:42:36Z</time>
      </trkpt>
      <trkpt lat="44.33613" lon="2.62801">
        <ele>657.6791992</ele>
        <time>2014-06-28T04:42:41Z</time>
      </trkpt>
      <trkpt lat="44.33625" lon="2.62797">
        <ele>657.6791992</ele>
        <time>2014-06-28T04:42:48Z</time>
      </trkpt>
      <trkpt lat="44.33638" lon="2.62797">
        <ele>657.6791992</ele>
        <time>2014-06-28T04:42:54Z</time>
      </trkpt>
      <trkpt lat="44.33651" lon="2.62793">
        <ele>657.6791992</ele>
        <time>2014-06-28T04:43:01Z</time>
      </trkpt>
      <trkpt lat="44.33659" lon="2.62789">
        <ele>658.1599121</ele>
        <time>2014-06-28T04:43:05Z</time>
      </trkpt>
      <trkpt lat="44.33669" lon="2.62785">
        <ele>658.1599121</ele>
        <time>2014-06-28T04:43:10Z</time>
      </trkpt>
      <trkpt lat="44.33678" lon="2.62773">
        <ele>659.6018066</ele>
        <time>2014-06-28T04:43:16Z</time>
      </trkpt>
      <trkpt lat="44.33686" lon="2.6276">
        <ele>661.5244141</ele>
        <time>2014-06-28T04:43:22Z</time>
      </trkpt>
      <trkpt lat="44.33697" lon="2.62742">
        <ele>663.4470215</ele>
        <time>2014-06-28T04:43:30Z</time>
      </trkpt>
      <trkpt lat="44.33703" lon="2.6273">
        <ele>664.888916</ele>
        <time>2014-06-28T04:43:35Z</time>
      </trkpt>
      <trkpt lat="44.33712" lon="2.62714">
        <ele>668.2536621</ele>
        <time>2014-06-28T04:43:42Z</time>
      </trkpt>
      <trkpt lat="44.3372" lon="2.62701">
        <ele>667.7727051</ele>
        <time>2014-06-28T04:43:48Z</time>
      </trkpt>
      <trkpt lat="44.3373" lon="2.62692">
        <ele>666.3308105</ele>
        <time>2014-06-28T04:43:54Z</time>
      </trkpt>
      <trkpt lat="44.33739" lon="2.62682">
        <ele>669.2150879</ele>
        <time>2014-06-28T04:44:00Z</time>
      </trkpt>
      <trkpt lat="44.33744" lon="2.6267">
        <ele>669.2150879</ele>
        <time>2014-06-28T04:44:05Z</time>
      </trkpt>
      <trkpt lat="44.33751" lon="2.62661">
        <ele>666.8115234</ele>
        <time>2014-06-28T04:44:09Z</time>
      </trkpt>
      <trkpt lat="44.33759" lon="2.62649">
        <ele>665.3696289</ele>
        <time>2014-06-28T04:44:14Z</time>
      </trkpt>
      <trkpt lat="44.33764" lon="2.62634">
        <ele>663.4470215</ele>
        <time>2014-06-28T04:44:19Z</time>
      </trkpt>
      <trkpt lat="44.33769" lon="2.62619">
        <ele>664.4082031</ele>
        <time>2014-06-28T04:44:24Z</time>
      </trkpt>
      <trkpt lat="44.33776" lon="2.62604">
        <ele>663.4470215</ele>
        <time>2014-06-28T04:44:29Z</time>
      </trkpt>
      <trkpt lat="44.33786" lon="2.62596">
        <ele>662.9663086</ele>
        <time>2014-06-28T04:44:34Z</time>
      </trkpt>
      <trkpt lat="44.338" lon="2.62594">
        <ele>662.9663086</ele>
        <time>2014-06-28T04:44:40Z</time>
      </trkpt>
      <trkpt lat="44.33814" lon="2.6259">
        <ele>662.9663086</ele>
        <time>2014-06-28T04:44:46Z</time>
      </trkpt>
      <trkpt lat="44.33827" lon="2.62589">
        <ele>664.4082031</ele>
        <time>2014-06-28T04:44:51Z</time>
      </trkpt>
      <trkpt lat="44.33839" lon="2.62585">
        <ele>663.4470215</ele>
        <time>2014-06-28T04:44:57Z</time>
      </trkpt>
      <trkpt lat="44.33851" lon="2.62581">
        <ele>662.9663086</ele>
        <time>2014-06-28T04:45:02Z</time>
      </trkpt>
      <trkpt lat="44.33859" lon="2.62575">
        <ele>662.9663086</ele>
        <time>2014-06-28T04:45:06Z</time>
      </trkpt>
      <trkpt lat="44.3387" lon="2.62563">
        <ele>664.888916</ele>
        <time>2014-06-28T04:45:12Z</time>
      </trkpt>
      <trkpt lat="44.33884" lon="2.62563">
        <ele>664.4082031</ele>
        <time>2014-06-28T04:45:17Z</time>
      </trkpt>
      <trkpt lat="44.33896" lon="2.62564">
        <ele>665.3696289</ele>
        <time>2014-06-28T04:45:22Z</time>
      </trkpt>
      <trkpt lat="44.33911" lon="2.62569">
        <ele>666.3308105</ele>
        <time>2014-06-28T04:45:28Z</time>
      </trkpt>
      <trkpt lat="44.33923" lon="2.62577">
        <ele>668.2536621</ele>
        <time>2014-06-28T04:45:33Z</time>
      </trkpt>
      <trkpt lat="44.33934" lon="2.6259">
        <ele>669.6958008</ele>
        <time>2014-06-28T04:45:39Z</time>
      </trkpt>
      <trkpt lat="44.33943" lon="2.62589">
        <ele>669.2150879</ele>
        <time>2014-06-28T04:45:43Z</time>
      </trkpt>
      <trkpt lat="44.33948" lon="2.62588">
        <ele>669.2150879</ele>
        <time>2014-06-28T04:45:45Z</time>
      </trkpt>
      <trkpt lat="44.33954" lon="2.62579">
        <ele>668.2536621</ele>
        <time>2014-06-28T04:45:49Z</time>
      </trkpt>
      <trkpt lat="44.33958" lon="2.62574">
        <ele>667.7727051</ele>
        <time>2014-06-28T04:45:51Z</time>
      </trkpt>
      <trkpt lat="44.33956" lon="2.62565">
        <ele>665.3696289</ele>
        <time>2014-06-28T04:45:56Z</time>
      </trkpt>
      <trkpt lat="44.33946" lon="2.62544">
        <ele>665.3696289</ele>
        <time>2014-06-28T04:46:04Z</time>
      </trkpt>
      <trkpt lat="44.33944" lon="2.6254">
        <ele>665.3696289</ele>
        <time>2014-06-28T04:46:06Z</time>
      </trkpt>
      <trkpt lat="44.33942" lon="2.62536">
        <ele>665.8503418</ele>
        <time>2014-06-28T04:46:11Z</time>
      </trkpt>
      <trkpt lat="44.33943" lon="2.62536">
        <ele>666.8115234</ele>
        <time>2014-06-28T04:46:16Z</time>
      </trkpt>
      <trkpt lat="44.33941" lon="2.62537">
        <ele>666.8115234</ele>
        <time>2014-06-28T04:46:21Z</time>
      </trkpt>
      <trkpt lat="44.3394" lon="2.62537">
        <ele>665.8503418</ele>
        <time>2014-06-28T04:46:29Z</time>
      </trkpt>
      <trkpt lat="44.33943" lon="2.6254">
        <ele>664.888916</ele>
        <time>2014-06-28T04:46:33Z</time>
      </trkpt>
      <trkpt lat="44.33953" lon="2.6254">
        <ele>664.4082031</ele>
        <time>2014-06-28T04:46:38Z</time>
      </trkpt>
      <trkpt lat="44.33959" lon="2.62533">
        <ele>664.4082031</ele>
        <time>2014-06-28T04:46:42Z</time>
      </trkpt>
      <trkpt lat="44.33961" lon="2.62531">
        <ele>664.4082031</ele>
        <time>2014-06-28T04:46:44Z</time>
      </trkpt>
      <trkpt lat="44.33959" lon="2.62535">
        <ele>665.8503418</ele>
        <time>2014-06-28T04:46:48Z</time>
      </trkpt>
      <trkpt lat="44.33949" lon="2.62541">
        <ele>667.7727051</ele>
        <time>2014-06-28T04:46:56Z</time>
      </trkpt>
      <trkpt lat="44.33943" lon="2.62539">
        <ele>667.7727051</ele>
        <time>2014-06-28T04:47:01Z</time>
      </trkpt>
      <trkpt lat="44.33941" lon="2.62537">
        <ele>666.8115234</ele>
        <time>2014-06-28T04:47:06Z</time>
      </trkpt>
      <trkpt lat="44.33947" lon="2.62536">
        <ele>665.8503418</ele>
        <time>2014-06-28T04:47:12Z</time>
      </trkpt>
      <trkpt lat="44.33945" lon="2.62537">
        <ele>664.888916</ele>
        <time>2014-06-28T04:47:18Z</time>
      </trkpt>
      <trkpt lat="44.33948" lon="2.62549">
        <ele>674.5021973</ele>
        <time>2014-06-28T04:47:27Z</time>
      </trkpt>
      <trkpt lat="44.33948" lon="2.62545">
        <ele>673.0603027</ele>
        <time>2014-06-28T04:47:30Z</time>
      </trkpt>
      <trkpt lat="44.3395" lon="2.62541">
        <ele>670.1762695</ele>
        <time>2014-06-28T04:47:35Z</time>
      </trkpt>
      <trkpt lat="44.33956" lon="2.62539">
        <ele>670.1762695</ele>
        <time>2014-06-28T04:47:43Z</time>
      </trkpt>
      <trkpt lat="44.33958" lon="2.62536">
        <ele>669.6958008</ele>
        <time>2014-06-28T04:47:45Z</time>
      </trkpt>
      <trkpt lat="44.33965" lon="2.6252">
        <ele>667.2922363</ele>
        <time>2014-06-28T04:47:53Z</time>
      </trkpt>
      <trkpt lat="44.33966" lon="2.62517">
        <ele>666.8115234</ele>
        <time>2014-06-28T04:47:54Z</time>
      </trkpt>
      <trkpt lat="44.33962" lon="2.62498">
        <ele>666.3308105</ele>
        <time>2014-06-28T04:47:59Z</time>
      </trkpt>
      <trkpt lat="44.33954" lon="2.62486">
        <ele>664.4082031</ele>
        <time>2014-06-28T04:48:03Z</time>
      </trkpt>
      <trkpt lat="44.33943" lon="2.62468">
        <ele>663.4470215</ele>
        <time>2014-06-28T04:48:10Z</time>
      </trkpt>
      <trkpt lat="44.33937" lon="2.62453">
        <ele>662.4855957</ele>
        <time>2014-06-28T04:48:15Z</time>
      </trkpt>
      <trkpt lat="44.3393" lon="2.62439">
        <ele>662.005127</ele>
        <time>2014-06-28T04:48:20Z</time>
      </trkpt>
      <trkpt lat="44.33931" lon="2.62422">
        <ele>661.0437012</ele>
        <time>2014-06-28T04:48:25Z</time>
      </trkpt>
      <trkpt lat="44.33929" lon="2.62404">
        <ele>660.0822754</ele>
        <time>2014-06-28T04:48:30Z</time>
      </trkpt>
      <trkpt lat="44.33929" lon="2.62381">
        <ele>659.6018066</ele>
        <time>2014-06-28T04:48:36Z</time>
      </trkpt>
      <trkpt lat="44.33927" lon="2.62363">
        <ele>659.1210938</ele>
        <time>2014-06-28T04:48:41Z</time>
      </trkpt>
      <trkpt lat="44.33925" lon="2.62344">
        <ele>659.1210938</ele>
        <time>2014-06-28T04:48:46Z</time>
      </trkpt>
      <trkpt lat="44.33921" lon="2.62325">
        <ele>657.6791992</ele>
        <time>2014-06-28T04:48:52Z</time>
      </trkpt>
      <trkpt lat="44.3392" lon="2.62307">
        <ele>656.7177734</ele>
        <time>2014-06-28T04:48:57Z</time>
      </trkpt>
      <trkpt lat="44.33921" lon="2.62283">
        <ele>655.2758789</ele>
        <time>2014-06-28T04:49:04Z</time>
      </trkpt>
      <trkpt lat="44.33926" lon="2.6226">
        <ele>653.8339844</ele>
        <time>2014-06-28T04:49:11Z</time>
      </trkpt>
      <trkpt lat="44.33934" lon="2.62243">
        <ele>651.9111328</ele>
        <time>2014-06-28T04:49:17Z</time>
      </trkpt>
      <trkpt lat="44.33945" lon="2.62229">
        <ele>649.5078125</ele>
        <time>2014-06-28T04:49:23Z</time>
      </trkpt>
      <trkpt lat="44.33953" lon="2.62212">
        <ele>648.065918</ele>
        <time>2014-06-28T04:49:29Z</time>
      </trkpt>
      <trkpt lat="44.33959" lon="2.62195">
        <ele>646.1433105</ele>
        <time>2014-06-28T04:49:35Z</time>
      </trkpt>
      <trkpt lat="44.33964" lon="2.62183">
        <ele>645.1818848</ele>
        <time>2014-06-28T04:49:39Z</time>
      </trkpt>
      <trkpt lat="44.33969" lon="2.62163">
        <ele>643.7399902</ele>
        <time>2014-06-28T04:49:45Z</time>
      </trkpt>
      <trkpt lat="44.33976" lon="2.62137">
        <ele>642.7788086</ele>
        <time>2014-06-28T04:49:53Z</time>
      </trkpt>
      <trkpt lat="44.33981" lon="2.62117">
        <ele>640.855957</ele>
        <time>2014-06-28T04:49:59Z</time>
      </trkpt>
      <trkpt lat="44.33986" lon="2.62094">
        <ele>639.8947754</ele>
        <time>2014-06-28T04:50:06Z</time>
      </trkpt>
      <trkpt lat="44.33992" lon="2.62071">
        <ele>639.8947754</ele>
        <time>2014-06-28T04:50:13Z</time>
      </trkpt>
      <trkpt lat="44.33997" lon="2.6205">
        <ele>639.8947754</ele>
        <time>2014-06-28T04:50:19Z</time>
      </trkpt>
      <trkpt lat="44.34003" lon="2.62028">
        <ele>638.9335938</ele>
        <time>2014-06-28T04:50:26Z</time>
      </trkpt>
      <trkpt lat="44.3401" lon="2.62007">
        <ele>637.0107422</ele>
        <time>2014-06-28T04:50:32Z</time>
      </trkpt>
      <trkpt lat="44.34016" lon="2.61986">
        <ele>635.5686035</ele>
        <time>2014-06-28T04:50:38Z</time>
      </trkpt>
      <trkpt lat="44.34024" lon="2.61963">
        <ele>634.126709</ele>
        <time>2014-06-28T04:50:45Z</time>
      </trkpt>
      <trkpt lat="44.34031" lon="2.61943">
        <ele>632.2041016</ele>
        <time>2014-06-28T04:50:51Z</time>
      </trkpt>
      <trkpt lat="44.34041" lon="2.61917">
        <ele>629.8007813</ele>
        <time>2014-06-28T04:50:59Z</time>
      </trkpt>
      <trkpt lat="44.3405" lon="2.61897">
        <ele>626.9169922</ele>
        <time>2014-06-28T04:51:05Z</time>
      </trkpt>
      <trkpt lat="44.34057" lon="2.61879">
        <ele>625.4748535</ele>
        <time>2014-06-28T04:51:11Z</time>
      </trkpt>
      <trkpt lat="44.34063" lon="2.61864">
        <ele>624.032959</ele>
        <time>2014-06-28T04:51:16Z</time>
      </trkpt>
      <trkpt lat="44.3407" lon="2.61846">
        <ele>624.032959</ele>
        <time>2014-06-28T04:51:22Z</time>
      </trkpt>
      <trkpt lat="44.34083" lon="2.61824">
        <ele>623.5524902</ele>
        <time>2014-06-28T04:51:30Z</time>
      </trkpt>
      <trkpt lat="44.34095" lon="2.61807">
        <ele>622.1103516</ele>
        <time>2014-06-28T04:51:37Z</time>
      </trkpt>
      <trkpt lat="44.34107" lon="2.61794">
        <ele>621.1491699</ele>
        <time>2014-06-28T04:51:43Z</time>
      </trkpt>
      <trkpt lat="44.34115" lon="2.61784">
        <ele>619.7070313</ele>
        <time>2014-06-28T04:51:48Z</time>
      </trkpt>
      <trkpt lat="44.34125" lon="2.6177">
        <ele>620.668457</ele>
        <time>2014-06-28T04:51:54Z</time>
      </trkpt>
      <trkpt lat="44.34134" lon="2.61755">
        <ele>622.1103516</ele>
        <time>2014-06-28T04:52:00Z</time>
      </trkpt>
      <trkpt lat="44.34142" lon="2.61741">
        <ele>623.0717773</ele>
        <time>2014-06-28T04:52:05Z</time>
      </trkpt>
      <trkpt lat="44.34152" lon="2.61721">
        <ele>622.5910645</ele>
        <time>2014-06-28T04:52:12Z</time>
      </trkpt>
      <trkpt lat="44.3416" lon="2.617">
        <ele>620.1877441</ele>
        <time>2014-06-28T04:52:18Z</time>
      </trkpt>
      <trkpt lat="44.34164" lon="2.61685">
        <ele>618.7456055</ele>
        <time>2014-06-28T04:52:23Z</time>
      </trkpt>
      <trkpt lat="44.34171" lon="2.61666">
        <ele>616.822998</ele>
        <time>2014-06-28T04:52:29Z</time>
      </trkpt>
      <trkpt lat="44.34176" lon="2.61648">
        <ele>614.9003906</ele>
        <time>2014-06-28T04:52:34Z</time>
      </trkpt>
      <trkpt lat="44.34182" lon="2.61626">
        <ele>612.4970703</ele>
        <time>2014-06-28T04:52:40Z</time>
      </trkpt>
      <trkpt lat="44.34184" lon="2.61608">
        <ele>610.09375</ele>
        <time>2014-06-28T04:52:45Z</time>
      </trkpt>
      <trkpt lat="44.34185" lon="2.61588">
        <ele>606.2485352</ele>
        <time>2014-06-28T04:52:50Z</time>
      </trkpt>
      <trkpt lat="44.34181" lon="2.61568">
        <ele>605.2873535</ele>
        <time>2014-06-28T04:52:55Z</time>
      </trkpt>
      <trkpt lat="44.34185" lon="2.61554">
        <ele>602.8837891</ele>
        <time>2014-06-28T04:52:59Z</time>
      </trkpt>
      <trkpt lat="44.3419" lon="2.6154">
        <ele>602.4030762</ele>
        <time>2014-06-28T04:53:03Z</time>
      </trkpt>
      <trkpt lat="44.34195" lon="2.61528">
        <ele>600.4807129</ele>
        <time>2014-06-28T04:53:08Z</time>
      </trkpt>
      <trkpt lat="44.34195" lon="2.61513">
        <ele>600</ele>
        <time>2014-06-28T04:53:13Z</time>
      </trkpt>
      <trkpt lat="44.34193" lon="2.61496">
        <ele>600.9611816</ele>
        <time>2014-06-28T04:53:19Z</time>
      </trkpt>
      <trkpt lat="44.34192" lon="2.61481">
        <ele>601.9226074</ele>
        <time>2014-06-28T04:53:24Z</time>
      </trkpt>
      <trkpt lat="44.34191" lon="2.61467">
        <ele>602.4030762</ele>
        <time>2014-06-28T04:53:29Z</time>
      </trkpt>
      <trkpt lat="44.3419" lon="2.61443">
        <ele>606.2485352</ele>
        <time>2014-06-28T04:53:37Z</time>
      </trkpt>
      <trkpt lat="44.34196" lon="2.61432">
        <ele>608.1713867</ele>
        <time>2014-06-28T04:53:42Z</time>
      </trkpt>
      <trkpt lat="44.34202" lon="2.61423">
        <ele>610.5744629</ele>
        <time>2014-06-28T04:53:46Z</time>
      </trkpt>
      <trkpt lat="44.34211" lon="2.61417">
        <ele>612.0166016</ele>
        <time>2014-06-28T04:53:51Z</time>
      </trkpt>
      <trkpt lat="44.3422" lon="2.61409">
        <ele>612.0166016</ele>
        <time>2014-06-28T04:53:56Z</time>
      </trkpt>
      <trkpt lat="44.3423" lon="2.61402">
        <ele>611.0551758</ele>
        <time>2014-06-28T04:54:01Z</time>
      </trkpt>
      <trkpt lat="44.34241" lon="2.61395">
        <ele>609.6132813</ele>
        <time>2014-06-28T04:54:07Z</time>
      </trkpt>
      <trkpt lat="44.34251" lon="2.6139">
        <ele>606.729248</ele>
        <time>2014-06-28T04:54:12Z</time>
      </trkpt>
      <trkpt lat="44.34262" lon="2.61382">
        <ele>607.2099609</ele>
        <time>2014-06-28T04:54:18Z</time>
      </trkpt>
      <trkpt lat="44.34271" lon="2.61376">
        <ele>605.2873535</ele>
        <time>2014-06-28T04:54:23Z</time>
      </trkpt>
      <trkpt lat="44.34284" lon="2.61365">
        <ele>604.8066406</ele>
        <time>2014-06-28T04:54:30Z</time>
      </trkpt>
      <trkpt lat="44.34295" lon="2.61357">
        <ele>604.8066406</ele>
        <time>2014-06-28T04:54:36Z</time>
      </trkpt>
      <trkpt lat="44.34305" lon="2.61347">
        <ele>606.729248</ele>
        <time>2014-06-28T04:54:42Z</time>
      </trkpt>
      <trkpt lat="44.34314" lon="2.61335">
        <ele>606.2485352</ele>
        <time>2014-06-28T04:54:48Z</time>
      </trkpt>
      <trkpt lat="44.34322" lon="2.61324">
        <ele>605.2873535</ele>
        <time>2014-06-28T04:54:53Z</time>
      </trkpt>
      <trkpt lat="44.34328" lon="2.61308">
        <ele>610.5744629</ele>
        <time>2014-06-28T04:54:58Z</time>
      </trkpt>
      <trkpt lat="44.34337" lon="2.61294">
        <ele>610.5744629</ele>
        <time>2014-06-28T04:55:05Z</time>
      </trkpt>
      <trkpt lat="44.34345" lon="2.61282">
        <ele>610.09375</ele>
        <time>2014-06-28T04:55:10Z</time>
      </trkpt>
      <trkpt lat="44.34351" lon="2.6127">
        <ele>609.1325684</ele>
        <time>2014-06-28T04:55:15Z</time>
      </trkpt>
      <trkpt lat="44.34357" lon="2.61252">
        <ele>608.1713867</ele>
        <time>2014-06-28T04:55:21Z</time>
      </trkpt>
      <trkpt lat="44.34362" lon="2.61233">
        <ele>610.09375</ele>
        <time>2014-06-28T04:55:27Z</time>
      </trkpt>
      <trkpt lat="44.34367" lon="2.61219">
        <ele>610.5744629</ele>
        <time>2014-06-28T04:55:33Z</time>
      </trkpt>
      <trkpt lat="44.34372" lon="2.61204">
        <ele>612.0166016</ele>
        <time>2014-06-28T04:55:38Z</time>
      </trkpt>
      <trkpt lat="44.34376" lon="2.61196">
        <ele>611.0551758</ele>
        <time>2014-06-28T04:55:41Z</time>
      </trkpt>
      <trkpt lat="44.34379" lon="2.61176">
        <ele>618.2648926</ele>
        <time>2014-06-28T04:55:47Z</time>
      </trkpt>
      <trkpt lat="44.3438" lon="2.6117">
        <ele>620.1877441</ele>
        <time>2014-06-28T04:55:49Z</time>
      </trkpt>
      <trkpt lat="44.34387" lon="2.61151">
        <ele>622.5910645</ele>
        <time>2014-06-28T04:55:55Z</time>
      </trkpt>
      <trkpt lat="44.34391" lon="2.61133">
        <ele>624.032959</ele>
        <time>2014-06-28T04:56:01Z</time>
      </trkpt>
      <trkpt lat="44.34394" lon="2.61116">
        <ele>627.8781738</ele>
        <time>2014-06-28T04:56:06Z</time>
      </trkpt>
      <trkpt lat="44.34398" lon="2.61097">
        <ele>628.3588867</ele>
        <time>2014-06-28T04:56:12Z</time>
      </trkpt>
      <trkpt lat="44.34402" lon="2.61082">
        <ele>630.2814941</ele>
        <time>2014-06-28T04:56:17Z</time>
      </trkpt>
      <trkpt lat="44.34407" lon="2.61068">
        <ele>630.762207</ele>
        <time>2014-06-28T04:56:22Z</time>
      </trkpt>
      <trkpt lat="44.34412" lon="2.61049">
        <ele>630.762207</ele>
        <time>2014-06-28T04:56:28Z</time>
      </trkpt>
      <trkpt lat="44.34417" lon="2.61029">
        <ele>631.2429199</ele>
        <time>2014-06-28T04:56:35Z</time>
      </trkpt>
      <trkpt lat="44.34421" lon="2.61015">
        <ele>631.7233887</ele>
        <time>2014-06-28T04:56:40Z</time>
      </trkpt>
      <trkpt lat="44.34423" lon="2.61">
        <ele>633.1652832</ele>
        <time>2014-06-28T04:56:45Z</time>
      </trkpt>
      <trkpt lat="44.34427" lon="2.60981">
        <ele>633.1652832</ele>
        <time>2014-06-28T04:56:51Z</time>
      </trkpt>
      <trkpt lat="44.3443" lon="2.60964">
        <ele>633.1652832</ele>
        <time>2014-06-28T04:56:56Z</time>
      </trkpt>
      <trkpt lat="44.34433" lon="2.60944">
        <ele>633.1652832</ele>
        <time>2014-06-28T04:57:02Z</time>
      </trkpt>
      <trkpt lat="44.34436" lon="2.60927">
        <ele>633.1652832</ele>
        <time>2014-06-28T04:57:07Z</time>
      </trkpt>
      <trkpt lat="44.3444" lon="2.60912">
        <ele>632.2041016</ele>
        <time>2014-06-28T04:57:12Z</time>
      </trkpt>
      <trkpt lat="44.34445" lon="2.60893">
        <ele>631.7233887</ele>
        <time>2014-06-28T04:57:18Z</time>
      </trkpt>
      <trkpt lat="44.34447" lon="2.60885">
        <ele>631.7233887</ele>
        <time>2014-06-28T04:57:23Z</time>
      </trkpt>
      <trkpt lat="44.34453" lon="2.60869">
        <ele>630.762207</ele>
        <time>2014-06-28T04:57:28Z</time>
      </trkpt>
      <trkpt lat="44.34453" lon="2.60866">
        <ele>630.2814941</ele>
        <time>2014-06-28T04:57:29Z</time>
      </trkpt>
      <trkpt lat="44.34451" lon="2.6086">
        <ele>631.7233887</ele>
        <time>2014-06-28T04:57:34Z</time>
      </trkpt>
      <trkpt lat="44.34452" lon="2.60857">
        <ele>632.2041016</ele>
        <time>2014-06-28T04:57:37Z</time>
      </trkpt>
      <trkpt lat="44.34457" lon="2.60842">
        <ele>633.1652832</ele>
        <time>2014-06-28T04:57:42Z</time>
      </trkpt>
      <trkpt lat="44.34464" lon="2.6082">
        <ele>632.6848145</ele>
        <time>2014-06-28T04:57:49Z</time>
      </trkpt>
      <trkpt lat="44.3447" lon="2.60801">
        <ele>633.1652832</ele>
        <time>2014-06-28T04:57:55Z</time>
      </trkpt>
      <trkpt lat="44.34476" lon="2.60783">
        <ele>633.6459961</ele>
        <time>2014-06-28T04:58:01Z</time>
      </trkpt>
      <trkpt lat="44.34482" lon="2.60766">
        <ele>633.1652832</ele>
        <time>2014-06-28T04:58:07Z</time>
      </trkpt>
      <trkpt lat="44.34484" lon="2.6076">
        <ele>633.1652832</ele>
        <time>2014-06-28T04:58:09Z</time>
      </trkpt>
      <trkpt lat="44.34491" lon="2.60741">
        <ele>633.1652832</ele>
        <time>2014-06-28T04:58:15Z</time>
      </trkpt>
      <trkpt lat="44.34497" lon="2.60727">
        <ele>633.6459961</ele>
        <time>2014-06-28T04:58:20Z</time>
      </trkpt>
      <trkpt lat="44.34506" lon="2.60712">
        <ele>634.126709</ele>
        <time>2014-06-28T04:58:26Z</time>
      </trkpt>
      <trkpt lat="44.34515" lon="2.60702">
        <ele>633.6459961</ele>
        <time>2014-06-28T04:58:31Z</time>
      </trkpt>
      <trkpt lat="44.34525" lon="2.60692">
        <ele>633.6459961</ele>
        <time>2014-06-28T04:58:36Z</time>
      </trkpt>
      <trkpt lat="44.34536" lon="2.60675">
        <ele>634.6074219</ele>
        <time>2014-06-28T04:58:43Z</time>
      </trkpt>
      <trkpt lat="44.34542" lon="2.60658">
        <ele>636.5302734</ele>
        <time>2014-06-28T04:58:49Z</time>
      </trkpt>
      <trkpt lat="44.34543" lon="2.60658">
        <ele>637.4914551</ele>
        <time>2014-06-28T04:58:56Z</time>
      </trkpt>
      <trkpt lat="44.34543" lon="2.60656">
        <ele>640.855957</ele>
        <time>2014-06-28T04:59:09Z</time>
      </trkpt>
      <trkpt lat="44.34543" lon="2.60656">
        <ele>640.855957</ele>
        <time>2014-06-28T04:59:16Z</time>
      </trkpt>
      <trkpt lat="44.34544" lon="2.60654">
        <ele>642.2980957</ele>
        <time>2014-06-28T04:59:25Z</time>
      </trkpt>
      <trkpt lat="44.34547" lon="2.60641">
        <ele>641.8173828</ele>
        <time>2014-06-28T04:59:29Z</time>
      </trkpt>
      <trkpt lat="44.34546" lon="2.6062">
        <ele>642.2980957</ele>
        <time>2014-06-28T04:59:35Z</time>
      </trkpt>
      <trkpt lat="44.34541" lon="2.60601">
        <ele>642.2980957</ele>
        <time>2014-06-28T04:59:41Z</time>
      </trkpt>
      <trkpt lat="44.34537" lon="2.60582">
        <ele>642.7788086</ele>
        <time>2014-06-28T04:59:47Z</time>
      </trkpt>
      <trkpt lat="44.34532" lon="2.60562">
        <ele>642.2980957</ele>
        <time>2014-06-28T04:59:53Z</time>
      </trkpt>
      <trkpt lat="44.34528" lon="2.60546">
        <ele>642.2980957</ele>
        <time>2014-06-28T04:59:58Z</time>
      </trkpt>
      <trkpt lat="44.34523" lon="2.60524">
        <ele>642.2980957</ele>
        <time>2014-06-28T05:00:05Z</time>
      </trkpt>
      <trkpt lat="44.34518" lon="2.60505">
        <ele>643.2592773</ele>
        <time>2014-06-28T05:00:11Z</time>
      </trkpt>
      <trkpt lat="44.34513" lon="2.60486">
        <ele>643.7399902</ele>
        <time>2014-06-28T05:00:17Z</time>
      </trkpt>
      <trkpt lat="44.34509" lon="2.60465">
        <ele>642.2980957</ele>
        <time>2014-06-28T05:00:23Z</time>
      </trkpt>
      <trkpt lat="44.34505" lon="2.60445">
        <ele>642.7788086</ele>
        <time>2014-06-28T05:00:29Z</time>
      </trkpt>
      <trkpt lat="44.34502" lon="2.60424">
        <ele>644.2207031</ele>
        <time>2014-06-28T05:00:35Z</time>
      </trkpt>
      <trkpt lat="44.34498" lon="2.60404">
        <ele>644.7011719</ele>
        <time>2014-06-28T05:00:41Z</time>
      </trkpt>
      <trkpt lat="44.34495" lon="2.60384">
        <ele>644.2207031</ele>
        <time>2014-06-28T05:00:47Z</time>
      </trkpt>
      <trkpt lat="44.3449" lon="2.60365">
        <ele>644.2207031</ele>
        <time>2014-06-28T05:00:53Z</time>
      </trkpt>
      <trkpt lat="44.34487" lon="2.6035">
        <ele>643.2592773</ele>
        <time>2014-06-28T05:00:58Z</time>
      </trkpt>
      <trkpt lat="44.34483" lon="2.6033">
        <ele>642.2980957</ele>
        <time>2014-06-28T05:01:04Z</time>
      </trkpt>
      <trkpt lat="44.3448" lon="2.60314">
        <ele>641.8173828</ele>
        <time>2014-06-28T05:01:09Z</time>
      </trkpt>
      <trkpt lat="44.34476" lon="2.60292">
        <ele>641.3366699</ele>
        <time>2014-06-28T05:01:15Z</time>
      </trkpt>
      <trkpt lat="44.34474" lon="2.60268">
        <ele>640.3754883</ele>
        <time>2014-06-28T05:01:22Z</time>
      </trkpt>
      <trkpt lat="44.34473" lon="2.60247">
        <ele>639.4140625</ele>
        <time>2014-06-28T05:01:28Z</time>
      </trkpt>
      <trkpt lat="44.34471" lon="2.60235">
        <ele>638.9335938</ele>
        <time>2014-06-28T05:01:33Z</time>
      </trkpt>
      <trkpt lat="44.3447" lon="2.60233">
        <ele>639.4140625</ele>
        <time>2014-06-28T05:01:43Z</time>
      </trkpt>
      <trkpt lat="44.34469" lon="2.60226">
        <ele>639.4140625</ele>
        <time>2014-06-28T05:01:45Z</time>
      </trkpt>
      <trkpt lat="44.34459" lon="2.60221">
        <ele>639.8947754</ele>
        <time>2014-06-28T05:01:50Z</time>
      </trkpt>
      <trkpt lat="44.34453" lon="2.60231">
        <ele>639.8947754</ele>
        <time>2014-06-28T05:01:54Z</time>
      </trkpt>
      <trkpt lat="44.3445" lon="2.60236">
        <ele>639.4140625</ele>
        <time>2014-06-28T05:01:56Z</time>
      </trkpt>
      <trkpt lat="44.34441" lon="2.60254">
        <ele>638.4528809</ele>
        <time>2014-06-28T05:02:03Z</time>
      </trkpt>
      <trkpt lat="44.34432" lon="2.6027">
        <ele>637.972168</ele>
        <time>2014-06-28T05:02:09Z</time>
      </trkpt>
      <trkpt lat="44.34421" lon="2.60288">
        <ele>637.4914551</ele>
        <time>2014-06-28T05:02:16Z</time>
      </trkpt>
      <trkpt lat="44.34413" lon="2.60301">
        <ele>636.5302734</ele>
        <time>2014-06-28T05:02:21Z</time>
      </trkpt>
      <trkpt lat="44.34405" lon="2.60313">
        <ele>636.0495605</ele>
        <time>2014-06-28T05:02:26Z</time>
      </trkpt>
      <trkpt lat="44.34395" lon="2.60333">
        <ele>636.0495605</ele>
        <time>2014-06-28T05:02:33Z</time>
      </trkpt>
      <trkpt lat="44.34386" lon="2.60349">
        <ele>635.0881348</ele>
        <time>2014-06-28T05:02:39Z</time>
      </trkpt>
      <trkpt lat="44.34377" lon="2.6037">
        <ele>635.5686035</ele>
        <time>2014-06-28T05:02:46Z</time>
      </trkpt>
      <trkpt lat="44.34367" lon="2.6039">
        <ele>636.0495605</ele>
        <time>2014-06-28T05:02:52Z</time>
      </trkpt>
      <trkpt lat="44.3436" lon="2.60401">
        <ele>636.0495605</ele>
        <time>2014-06-28T05:02:56Z</time>
      </trkpt>
      <trkpt lat="44.34349" lon="2.6042">
        <ele>635.5686035</ele>
        <time>2014-06-28T05:03:03Z</time>
      </trkpt>
      <trkpt lat="44.3434" lon="2.60437">
        <ele>635.5686035</ele>
        <time>2014-06-28T05:03:09Z</time>
      </trkpt>
      <trkpt lat="44.34333" lon="2.6045">
        <ele>636.0495605</ele>
        <time>2014-06-28T05:03:14Z</time>
      </trkpt>
      <trkpt lat="44.34325" lon="2.60466">
        <ele>636.0495605</ele>
        <time>2014-06-28T05:03:20Z</time>
      </trkpt>
      <trkpt lat="44.34316" lon="2.60485">
        <ele>636.0495605</ele>
        <time>2014-06-28T05:03:27Z</time>
      </trkpt>
      <trkpt lat="44.34309" lon="2.60499">
        <ele>635.0881348</ele>
        <time>2014-06-28T05:03:32Z</time>
      </trkpt>
      <trkpt lat="44.34302" lon="2.60515">
        <ele>634.126709</ele>
        <time>2014-06-28T05:03:37Z</time>
      </trkpt>
      <trkpt lat="44.34292" lon="2.6053">
        <ele>633.6459961</ele>
        <time>2014-06-28T05:03:43Z</time>
      </trkpt>
      <trkpt lat="44.34277" lon="2.60551">
        <ele>633.6459961</ele>
        <time>2014-06-28T05:03:51Z</time>
      </trkpt>
      <trkpt lat="44.3427" lon="2.60561">
        <ele>634.126709</ele>
        <time>2014-06-28T05:03:55Z</time>
      </trkpt>
      <trkpt lat="44.34262" lon="2.60573">
        <ele>633.6459961</ele>
        <time>2014-06-28T05:04:00Z</time>
      </trkpt>
      <trkpt lat="44.34258" lon="2.60578">
        <ele>633.1652832</ele>
        <time>2014-06-28T05:04:02Z</time>
      </trkpt>
      <trkpt lat="44.3425" lon="2.6059">
        <ele>632.6848145</ele>
        <time>2014-06-28T05:04:07Z</time>
      </trkpt>
      <trkpt lat="44.34238" lon="2.60606">
        <ele>630.762207</ele>
        <time>2014-06-28T05:04:14Z</time>
      </trkpt>
      <trkpt lat="44.34227" lon="2.60621">
        <ele>629.3200684</ele>
        <time>2014-06-28T05:04:20Z</time>
      </trkpt>
      <trkpt lat="44.34222" lon="2.60628">
        <ele>629.3200684</ele>
        <time>2014-06-28T05:04:23Z</time>
      </trkpt>
      <trkpt lat="44.34216" lon="2.60639">
        <ele>629.3200684</ele>
        <time>2014-06-28T05:04:27Z</time>
      </trkpt>
      <trkpt lat="44.3421" lon="2.6066">
        <ele>628.8395996</ele>
        <time>2014-06-28T05:04:33Z</time>
      </trkpt>
      <trkpt lat="44.34208" lon="2.60674">
        <ele>627.8781738</ele>
        <time>2014-06-28T05:04:37Z</time>
      </trkpt>
      <trkpt lat="44.34204" lon="2.6069">
        <ele>626.4362793</ele>
        <time>2014-06-28T05:04:42Z</time>
      </trkpt>
      <trkpt lat="44.34198" lon="2.60707">
        <ele>625.9555664</ele>
        <time>2014-06-28T05:04:47Z</time>
      </trkpt>
      <trkpt lat="44.34197" lon="2.6071">
        <ele>625.9555664</ele>
        <time>2014-06-28T05:04:48Z</time>
      </trkpt>
      <trkpt lat="44.34188" lon="2.60728">
        <ele>626.9169922</ele>
        <time>2014-06-28T05:04:55Z</time>
      </trkpt>
      <trkpt lat="44.34181" lon="2.60742">
        <ele>625.9555664</ele>
        <time>2014-06-28T05:05:00Z</time>
      </trkpt>
      <trkpt lat="44.34174" lon="2.60755">
        <ele>624.5136719</ele>
        <time>2014-06-28T05:05:05Z</time>
      </trkpt>
      <trkpt lat="44.34166" lon="2.6077">
        <ele>622.5910645</ele>
        <time>2014-06-28T05:05:11Z</time>
      </trkpt>
      <trkpt lat="44.34157" lon="2.60785">
        <ele>622.1103516</ele>
        <time>2014-06-28T05:05:16Z</time>
      </trkpt>
      <trkpt lat="44.3415" lon="2.60797">
        <ele>621.1491699</ele>
        <time>2014-06-28T05:05:20Z</time>
      </trkpt>
      <trkpt lat="44.34137" lon="2.60814">
        <ele>621.6296387</ele>
        <time>2014-06-28T05:05:27Z</time>
      </trkpt>
      <trkpt lat="44.34129" lon="2.60824">
        <ele>621.1491699</ele>
        <time>2014-06-28T05:05:32Z</time>
      </trkpt>
      <trkpt lat="44.3412" lon="2.60832">
        <ele>621.6296387</ele>
        <time>2014-06-28T05:05:36Z</time>
      </trkpt>
      <trkpt lat="44.34109" lon="2.60845">
        <ele>622.1103516</ele>
        <time>2014-06-28T05:05:41Z</time>
      </trkpt>
      <trkpt lat="44.34102" lon="2.60853">
        <ele>621.6296387</ele>
        <time>2014-06-28T05:05:45Z</time>
      </trkpt>
      <trkpt lat="44.34101" lon="2.60855">
        <ele>622.1103516</ele>
        <time>2014-06-28T05:05:46Z</time>
      </trkpt>
      <trkpt lat="44.34094" lon="2.60863">
        <ele>622.5910645</ele>
        <time>2014-06-28T05:05:50Z</time>
      </trkpt>
      <trkpt lat="44.34078" lon="2.6088">
        <ele>623.0717773</ele>
        <time>2014-06-28T05:05:58Z</time>
      </trkpt>
      <trkpt lat="44.34067" lon="2.60888">
        <ele>620.668457</ele>
        <time>2014-06-28T05:06:03Z</time>
      </trkpt>
      <trkpt lat="44.34056" lon="2.60898">
        <ele>620.1877441</ele>
        <time>2014-06-28T05:06:08Z</time>
      </trkpt>
      <trkpt lat="44.34042" lon="2.60912">
        <ele>621.1491699</ele>
        <time>2014-06-28T05:06:14Z</time>
      </trkpt>
      <trkpt lat="44.34033" lon="2.60922">
        <ele>620.1877441</ele>
        <time>2014-06-28T05:06:19Z</time>
      </trkpt>
      <trkpt lat="44.34023" lon="2.60929">
        <ele>620.1877441</ele>
        <time>2014-06-28T05:06:24Z</time>
      </trkpt>
      <trkpt lat="44.34011" lon="2.60938">
        <ele>619.7070313</ele>
        <time>2014-06-28T05:06:30Z</time>
      </trkpt>
      <trkpt lat="44.33996" lon="2.60946">
        <ele>619.7070313</ele>
        <time>2014-06-28T05:06:36Z</time>
      </trkpt>
      <trkpt lat="44.33985" lon="2.60952">
        <ele>618.7456055</ele>
        <time>2014-06-28T05:06:41Z</time>
      </trkpt>
      <trkpt lat="44.33973" lon="2.60961">
        <ele>618.2648926</ele>
        <time>2014-06-28T05:06:46Z</time>
      </trkpt>
      <trkpt lat="44.33958" lon="2.60973">
        <ele>616.3422852</ele>
        <time>2014-06-28T05:06:52Z</time>
      </trkpt>
      <trkpt lat="44.33948" lon="2.60981">
        <ele>614.9003906</ele>
        <time>2014-06-28T05:06:56Z</time>
      </trkpt>
      <trkpt lat="44.33941" lon="2.60988">
        <ele>612.9777832</ele>
        <time>2014-06-28T05:07:00Z</time>
      </trkpt>
      <trkpt lat="44.33928" lon="2.60999">
        <ele>612.0166016</ele>
        <time>2014-06-28T05:07:05Z</time>
      </trkpt>
      <trkpt lat="44.33917" lon="2.61008">
        <ele>611.5358887</ele>
        <time>2014-06-28T05:07:09Z</time>
      </trkpt>
      <trkpt lat="44.33908" lon="2.61011">
        <ele>612.4970703</ele>
        <time>2014-06-28T05:07:14Z</time>
      </trkpt>
      <trkpt lat="44.33905" lon="2.61014">
        <ele>612.0166016</ele>
        <time>2014-06-28T05:07:15Z</time>
      </trkpt>
      <trkpt lat="44.33891" lon="2.61031">
        <ele>610.09375</ele>
        <time>2014-06-28T05:07:21Z</time>
      </trkpt>
      <trkpt lat="44.33883" lon="2.61043">
        <ele>608.6518555</ele>
        <time>2014-06-28T05:07:25Z</time>
      </trkpt>
      <trkpt lat="44.33881" lon="2.61045">
        <ele>608.6518555</ele>
        <time>2014-06-28T05:07:26Z</time>
      </trkpt>
      <trkpt lat="44.33876" lon="2.61047">
        <ele>608.1713867</ele>
        <time>2014-06-28T05:07:28Z</time>
      </trkpt>
      <trkpt lat="44.33866" lon="2.6106">
        <ele>605.2873535</ele>
        <time>2014-06-28T05:07:34Z</time>
      </trkpt>
      <trkpt lat="44.33857" lon="2.61068">
        <ele>604.3261719</ele>
        <time>2014-06-28T05:07:39Z</time>
      </trkpt>
      <trkpt lat="44.33855" lon="2.6107">
        <ele>603.8452148</ele>
        <time>2014-06-28T05:07:40Z</time>
      </trkpt>
      <trkpt lat="44.33845" lon="2.61077">
        <ele>601.9226074</ele>
        <time>2014-06-28T05:07:45Z</time>
      </trkpt>
      <trkpt lat="44.33834" lon="2.61089">
        <ele>600.9611816</ele>
        <time>2014-06-28T05:07:51Z</time>
      </trkpt>
      <trkpt lat="44.33828" lon="2.61098">
        <ele>600</ele>
        <time>2014-06-28T05:07:55Z</time>
      </trkpt>
      <trkpt lat="44.33818" lon="2.61108">
        <ele>599.0385742</ele>
        <time>2014-06-28T05:08:00Z</time>
      </trkpt>
      <trkpt lat="44.33808" lon="2.61113">
        <ele>598.0773926</ele>
        <time>2014-06-28T05:08:05Z</time>
      </trkpt>
      <trkpt lat="44.33799" lon="2.61114">
        <ele>598.5578613</ele>
        <time>2014-06-28T05:08:09Z</time>
      </trkpt>
      <trkpt lat="44.33784" lon="2.61109">
        <ele>598.5578613</ele>
        <time>2014-06-28T05:08:15Z</time>
      </trkpt>
      <trkpt lat="44.33767" lon="2.61104">
        <ele>599.5192871</ele>
        <time>2014-06-28T05:08:22Z</time>
      </trkpt>
      <trkpt lat="44.33752" lon="2.61099">
        <ele>600</ele>
        <time>2014-06-28T05:08:28Z</time>
      </trkpt>
      <trkpt lat="44.33741" lon="2.61094">
        <ele>600.9611816</ele>
        <time>2014-06-28T05:08:33Z</time>
      </trkpt>
      <trkpt lat="44.33728" lon="2.61085">
        <ele>601.4418945</ele>
        <time>2014-06-28T05:08:39Z</time>
      </trkpt>
      <trkpt lat="44.33726" lon="2.61084">
        <ele>601.9226074</ele>
        <time>2014-06-28T05:08:40Z</time>
      </trkpt>
      <trkpt lat="44.33712" lon="2.61077">
        <ele>600</ele>
        <time>2014-06-28T05:08:47Z</time>
      </trkpt>
      <trkpt lat="44.33698" lon="2.61074">
        <ele>600.4807129</ele>
        <time>2014-06-28T05:08:53Z</time>
      </trkpt>
      <trkpt lat="44.33683" lon="2.6107">
        <ele>600.4807129</ele>
        <time>2014-06-28T05:08:59Z</time>
      </trkpt>
      <trkpt lat="44.33673" lon="2.61068">
        <ele>600.9611816</ele>
        <time>2014-06-28T05:09:04Z</time>
      </trkpt>
      <trkpt lat="44.33663" lon="2.6107">
        <ele>602.4030762</ele>
        <time>2014-06-28T05:09:09Z</time>
      </trkpt>
      <trkpt lat="44.33654" lon="2.61076">
        <ele>602.8837891</ele>
        <time>2014-06-28T05:09:14Z</time>
      </trkpt>
      <trkpt lat="44.33643" lon="2.61075">
        <ele>601.4418945</ele>
        <time>2014-06-28T05:09:19Z</time>
      </trkpt>
      <trkpt lat="44.33634" lon="2.61067">
        <ele>600.9611816</ele>
        <time>2014-06-28T05:09:23Z</time>
      </trkpt>
      <trkpt lat="44.33627" lon="2.61057">
        <ele>600.9611816</ele>
        <time>2014-06-28T05:09:27Z</time>
      </trkpt>
      <trkpt lat="44.33617" lon="2.61047">
        <ele>600</ele>
        <time>2014-06-28T05:09:32Z</time>
      </trkpt>
      <trkpt lat="44.33606" lon="2.61038">
        <ele>599.5192871</ele>
        <time>2014-06-28T05:09:37Z</time>
      </trkpt>
      <trkpt lat="44.33594" lon="2.61026">
        <ele>599.0385742</ele>
        <time>2014-06-28T05:09:43Z</time>
      </trkpt>
      <trkpt lat="44.3358" lon="2.61017">
        <ele>599.5192871</ele>
        <time>2014-06-28T05:09:49Z</time>
      </trkpt>
      <trkpt lat="44.33571" lon="2.61004">
        <ele>600</ele>
        <time>2014-06-28T05:09:54Z</time>
      </trkpt>
      <trkpt lat="44.33565" lon="2.60991">
        <ele>601.9226074</ele>
        <time>2014-06-28T05:09:59Z</time>
      </trkpt>
      <trkpt lat="44.3356" lon="2.6098">
        <ele>602.8837891</ele>
        <time>2014-06-28T05:10:04Z</time>
      </trkpt>
      <trkpt lat="44.33553" lon="2.60963">
        <ele>603.8452148</ele>
        <time>2014-06-28T05:10:11Z</time>
      </trkpt>
      <trkpt lat="44.33547" lon="2.60946">
        <ele>604.8066406</ele>
        <time>2014-06-28T05:10:17Z</time>
      </trkpt>
      <trkpt lat="44.33543" lon="2.60932">
        <ele>604.8066406</ele>
        <time>2014-06-28T05:10:22Z</time>
      </trkpt>
      <trkpt lat="44.33538" lon="2.6091">
        <ele>606.2485352</ele>
        <time>2014-06-28T05:10:29Z</time>
      </trkpt>
      <trkpt lat="44.33533" lon="2.60888">
        <ele>606.729248</ele>
        <time>2014-06-28T05:10:36Z</time>
      </trkpt>
      <trkpt lat="44.33527" lon="2.60871">
        <ele>607.2099609</ele>
        <time>2014-06-28T05:10:42Z</time>
      </trkpt>
      <trkpt lat="44.33521" lon="2.60855">
        <ele>607.2099609</ele>
        <time>2014-06-28T05:10:48Z</time>
      </trkpt>
      <trkpt lat="44.33516" lon="2.6084">
        <ele>607.2099609</ele>
        <time>2014-06-28T05:10:53Z</time>
      </trkpt>
      <trkpt lat="44.33513" lon="2.60826">
        <ele>607.6906738</ele>
        <time>2014-06-28T05:10:57Z</time>
      </trkpt>
      <trkpt lat="44.33511" lon="2.60814">
        <ele>607.6906738</ele>
        <time>2014-06-28T05:11:01Z</time>
      </trkpt>
      <trkpt lat="44.33508" lon="2.60794">
        <ele>607.6906738</ele>
        <time>2014-06-28T05:11:07Z</time>
      </trkpt>
      <trkpt lat="44.33508" lon="2.60779">
        <ele>607.2099609</ele>
        <time>2014-06-28T05:11:12Z</time>
      </trkpt>
      <trkpt lat="44.33502" lon="2.60762">
        <ele>608.1713867</ele>
        <time>2014-06-28T05:11:18Z</time>
      </trkpt>
      <trkpt lat="44.33491" lon="2.60753">
        <ele>608.1713867</ele>
        <time>2014-06-28T05:11:24Z</time>
      </trkpt>
      <trkpt lat="44.33478" lon="2.60747">
        <ele>610.09375</ele>
        <time>2014-06-28T05:11:30Z</time>
      </trkpt>
      <trkpt lat="44.33469" lon="2.60738">
        <ele>610.09375</ele>
        <time>2014-06-28T05:11:35Z</time>
      </trkpt>
      <trkpt lat="44.3346" lon="2.60724">
        <ele>609.6132813</ele>
        <time>2014-06-28T05:11:41Z</time>
      </trkpt>
      <trkpt lat="44.33456" lon="2.60714">
        <ele>608.6518555</ele>
        <time>2014-06-28T05:11:45Z</time>
      </trkpt>
      <trkpt lat="44.33454" lon="2.6069">
        <ele>606.729248</ele>
        <time>2014-06-28T05:11:52Z</time>
      </trkpt>
      <trkpt lat="44.33451" lon="2.60671">
        <ele>605.2873535</ele>
        <time>2014-06-28T05:11:58Z</time>
      </trkpt>
      <trkpt lat="44.33448" lon="2.60655">
        <ele>603.8452148</ele>
        <time>2014-06-28T05:12:03Z</time>
      </trkpt>
      <trkpt lat="44.33445" lon="2.60631">
        <ele>602.8837891</ele>
        <time>2014-06-28T05:12:10Z</time>
      </trkpt>
      <trkpt lat="44.33441" lon="2.60623">
        <ele>602.4030762</ele>
        <time>2014-06-28T05:12:13Z</time>
      </trkpt>
      <trkpt lat="44.33429" lon="2.60618">
        <ele>604.3261719</ele>
        <time>2014-06-28T05:12:19Z</time>
      </trkpt>
      <trkpt lat="44.33418" lon="2.60619">
        <ele>605.7680664</ele>
        <time>2014-06-28T05:12:24Z</time>
      </trkpt>
      <trkpt lat="44.33412" lon="2.60618">
        <ele>605.7680664</ele>
        <time>2014-06-28T05:12:27Z</time>
      </trkpt>
      <trkpt lat="44.33399" lon="2.60614">
        <ele>607.2099609</ele>
        <time>2014-06-28T05:12:33Z</time>
      </trkpt>
      <trkpt lat="44.33386" lon="2.60609">
        <ele>609.1325684</ele>
        <time>2014-06-28T05:12:38Z</time>
      </trkpt>
      <trkpt lat="44.33377" lon="2.60608">
        <ele>611.0551758</ele>
        <time>2014-06-28T05:12:42Z</time>
      </trkpt>
      <trkpt lat="44.33365" lon="2.60611">
        <ele>613.4584961</ele>
        <time>2014-06-28T05:12:49Z</time>
      </trkpt>
      <trkpt lat="44.33354" lon="2.60614">
        <ele>614.9003906</ele>
        <time>2014-06-28T05:12:54Z</time>
      </trkpt>
      <trkpt lat="44.33345" lon="2.60618">
        <ele>615.8618164</ele>
        <time>2014-06-28T05:12:59Z</time>
      </trkpt>
      <trkpt lat="44.33333" lon="2.60621">
        <ele>617.7841797</ele>
        <time>2014-06-28T05:13:05Z</time>
      </trkpt>
      <trkpt lat="44.33322" lon="2.60624">
        <ele>619.7070313</ele>
        <time>2014-06-28T05:13:11Z</time>
      </trkpt>
      <trkpt lat="44.33309" lon="2.60628">
        <ele>622.5910645</ele>
        <time>2014-06-28T05:13:17Z</time>
      </trkpt>
      <trkpt lat="44.33298" lon="2.60634">
        <ele>624.5136719</ele>
        <time>2014-06-28T05:13:23Z</time>
      </trkpt>
      <trkpt lat="44.33289" lon="2.60641">
        <ele>625.4748535</ele>
        <time>2014-06-28T05:13:29Z</time>
      </trkpt>
      <trkpt lat="44.3328" lon="2.60648">
        <ele>626.9169922</ele>
        <time>2014-06-28T05:13:36Z</time>
      </trkpt>
      <trkpt lat="44.33277" lon="2.6065">
        <ele>627.3977051</ele>
        <time>2014-06-28T05:13:38Z</time>
      </trkpt>
      <trkpt lat="44.33268" lon="2.60662">
        <ele>629.8007813</ele>
        <time>2014-06-28T05:13:46Z</time>
      </trkpt>
      <trkpt lat="44.33259" lon="2.60673">
        <ele>633.1652832</ele>
        <time>2014-06-28T05:13:55Z</time>
      </trkpt>
      <trkpt lat="44.33253" lon="2.60683">
        <ele>635.0881348</ele>
        <time>2014-06-28T05:14:01Z</time>
      </trkpt>
      <trkpt lat="44.33248" lon="2.60692">
        <ele>636.0495605</ele>
        <time>2014-06-28T05:14:07Z</time>
      </trkpt>
      <trkpt lat="44.33247" lon="2.60694">
        <ele>636.5302734</ele>
        <time>2014-06-28T05:14:08Z</time>
      </trkpt>
      <trkpt lat="44.33242" lon="2.607">
        <ele>637.972168</ele>
        <time>2014-06-28T05:14:13Z</time>
      </trkpt>
      <trkpt lat="44.33237" lon="2.60705">
        <ele>638.4528809</ele>
        <time>2014-06-28T05:14:18Z</time>
      </trkpt>
      <trkpt lat="44.33231" lon="2.60716">
        <ele>639.4140625</ele>
        <time>2014-06-28T05:14:25Z</time>
      </trkpt>
      <trkpt lat="44.33224" lon="2.60728">
        <ele>639.8947754</ele>
        <time>2014-06-28T05:14:31Z</time>
      </trkpt>
      <trkpt lat="44.33218" lon="2.60747">
        <ele>641.3366699</ele>
        <time>2014-06-28T05:14:38Z</time>
      </trkpt>
      <trkpt lat="44.33216" lon="2.60758">
        <ele>641.8173828</ele>
        <time>2014-06-28T05:14:42Z</time>
      </trkpt>
      <trkpt lat="44.3321" lon="2.60769">
        <ele>642.2980957</ele>
        <time>2014-06-28T05:14:47Z</time>
      </trkpt>
      <trkpt lat="44.33203" lon="2.6078">
        <ele>642.7788086</ele>
        <time>2014-06-28T05:14:52Z</time>
      </trkpt>
      <trkpt lat="44.33199" lon="2.60788">
        <ele>642.7788086</ele>
        <time>2014-06-28T05:14:55Z</time>
      </trkpt>
      <trkpt lat="44.3319" lon="2.60803">
        <ele>644.2207031</ele>
        <time>2014-06-28T05:15:01Z</time>
      </trkpt>
      <trkpt lat="44.33189" lon="2.60805">
        <ele>644.7011719</ele>
        <time>2014-06-28T05:15:02Z</time>
      </trkpt>
      <trkpt lat="44.33181" lon="2.60817">
        <ele>644.7011719</ele>
        <time>2014-06-28T05:15:08Z</time>
      </trkpt>
      <trkpt lat="44.33176" lon="2.60823">
        <ele>645.6625977</ele>
        <time>2014-06-28T05:15:11Z</time>
      </trkpt>
      <trkpt lat="44.3316" lon="2.60836">
        <ele>647.5852051</ele>
        <time>2014-06-28T05:15:19Z</time>
      </trkpt>
      <trkpt lat="44.33148" lon="2.60847">
        <ele>649.0270996</ele>
        <time>2014-06-28T05:15:25Z</time>
      </trkpt>
      <trkpt lat="44.33137" lon="2.60859">
        <ele>649.9885254</ele>
        <time>2014-06-28T05:15:31Z</time>
      </trkpt>
      <trkpt lat="44.33127" lon="2.60867">
        <ele>650.4692383</ele>
        <time>2014-06-28T05:15:36Z</time>
      </trkpt>
      <trkpt lat="44.33118" lon="2.60875">
        <ele>650.4692383</ele>
        <time>2014-06-28T05:15:41Z</time>
      </trkpt>
      <trkpt lat="44.33114" lon="2.60877">
        <ele>650.4692383</ele>
        <time>2014-06-28T05:15:43Z</time>
      </trkpt>
      <trkpt lat="44.33107" lon="2.60885">
        <ele>649.9885254</ele>
        <time>2014-06-28T05:15:47Z</time>
      </trkpt>
      <trkpt lat="44.33096" lon="2.609">
        <ele>649.9885254</ele>
        <time>2014-06-28T05:15:53Z</time>
      </trkpt>
      <trkpt lat="44.33087" lon="2.60911">
        <ele>649.9885254</ele>
        <time>2014-06-28T05:15:58Z</time>
      </trkpt>
      <trkpt lat="44.33078" lon="2.60923">
        <ele>649.9885254</ele>
        <time>2014-06-28T05:16:03Z</time>
      </trkpt>
      <trkpt lat="44.33069" lon="2.60932">
        <ele>649.9885254</ele>
        <time>2014-06-28T05:16:08Z</time>
      </trkpt>
      <trkpt lat="44.33061" lon="2.6094">
        <ele>649.9885254</ele>
        <time>2014-06-28T05:16:12Z</time>
      </trkpt>
      <trkpt lat="44.33048" lon="2.6095">
        <ele>649.9885254</ele>
        <time>2014-06-28T05:16:19Z</time>
      </trkpt>
      <trkpt lat="44.3304" lon="2.60953">
        <ele>651.4304199</ele>
        <time>2014-06-28T05:16:23Z</time>
      </trkpt>
      <trkpt lat="44.33028" lon="2.60959">
        <ele>651.9111328</ele>
        <time>2014-06-28T05:16:28Z</time>
      </trkpt>
      <trkpt lat="44.33014" lon="2.60968">
        <ele>652.8725586</ele>
        <time>2014-06-28T05:16:35Z</time>
      </trkpt>
      <trkpt lat="44.33" lon="2.6098">
        <ele>654.795166</ele>
        <time>2014-06-28T05:16:42Z</time>
      </trkpt>
      <trkpt lat="44.3299" lon="2.60989">
        <ele>654.3146973</ele>
        <time>2014-06-28T05:16:47Z</time>
      </trkpt>
      <trkpt lat="44.32979" lon="2.61001">
        <ele>654.795166</ele>
        <time>2014-06-28T05:16:53Z</time>
      </trkpt>
      <trkpt lat="44.3297" lon="2.61012">
        <ele>655.2758789</ele>
        <time>2014-06-28T05:16:58Z</time>
      </trkpt>
      <trkpt lat="44.32956" lon="2.61025">
        <ele>654.795166</ele>
        <time>2014-06-28T05:17:05Z</time>
      </trkpt>
      <trkpt lat="44.32954" lon="2.61027">
        <ele>654.795166</ele>
        <time>2014-06-28T05:17:06Z</time>
      </trkpt>
      <trkpt lat="44.32945" lon="2.61037">
        <ele>654.3146973</ele>
        <time>2014-06-28T05:17:11Z</time>
      </trkpt>
      <trkpt lat="44.32933" lon="2.61048">
        <ele>655.2758789</ele>
        <time>2014-06-28T05:17:17Z</time>
      </trkpt>
      <trkpt lat="44.32923" lon="2.61061">
        <ele>655.7565918</ele>
        <time>2014-06-28T05:17:23Z</time>
      </trkpt>
      <trkpt lat="44.32917" lon="2.61067">
        <ele>655.7565918</ele>
        <time>2014-06-28T05:17:26Z</time>
      </trkpt>
      <trkpt lat="44.32908" lon="2.61076">
        <ele>656.2370605</ele>
        <time>2014-06-28T05:17:31Z</time>
      </trkpt>
      <trkpt lat="44.32901" lon="2.61088">
        <ele>655.7565918</ele>
        <time>2014-06-28T05:17:35Z</time>
      </trkpt>
      <trkpt lat="44.329" lon="2.6109">
        <ele>656.2370605</ele>
        <time>2014-06-28T05:17:36Z</time>
      </trkpt>
      <trkpt lat="44.32891" lon="2.61107">
        <ele>657.1984863</ele>
        <time>2014-06-28T05:17:42Z</time>
      </trkpt>
      <trkpt lat="44.32884" lon="2.61117">
        <ele>657.1984863</ele>
        <time>2014-06-28T05:17:46Z</time>
      </trkpt>
      <trkpt lat="44.32878" lon="2.61129">
        <ele>657.1984863</ele>
        <time>2014-06-28T05:17:50Z</time>
      </trkpt>
      <trkpt lat="44.32871" lon="2.61143">
        <ele>657.6791992</ele>
        <time>2014-06-28T05:17:55Z</time>
      </trkpt>
      <trkpt lat="44.32862" lon="2.61159">
        <ele>657.1984863</ele>
        <time>2014-06-28T05:18:01Z</time>
      </trkpt>
      <trkpt lat="44.32855" lon="2.61171">
        <ele>657.1984863</ele>
        <time>2014-06-28T05:18:06Z</time>
      </trkpt>
      <trkpt lat="44.32847" lon="2.61182">
        <ele>657.1984863</ele>
        <time>2014-06-28T05:18:11Z</time>
      </trkpt>
      <trkpt lat="44.3284" lon="2.61194">
        <ele>656.7177734</ele>
        <time>2014-06-28T05:18:16Z</time>
      </trkpt>
      <trkpt lat="44.32832" lon="2.61205">
        <ele>655.7565918</ele>
        <time>2014-06-28T05:18:21Z</time>
      </trkpt>
      <trkpt lat="44.32824" lon="2.61218">
        <ele>656.7177734</ele>
        <time>2014-06-28T05:18:26Z</time>
      </trkpt>
      <trkpt lat="44.32817" lon="2.61232">
        <ele>657.6791992</ele>
        <time>2014-06-28T05:18:31Z</time>
      </trkpt>
      <trkpt lat="44.3281" lon="2.61245">
        <ele>659.6018066</ele>
        <time>2014-06-28T05:18:36Z</time>
      </trkpt>
      <trkpt lat="44.32803" lon="2.61261">
        <ele>662.005127</ele>
        <time>2014-06-28T05:18:41Z</time>
      </trkpt>
      <trkpt lat="44.32796" lon="2.61278">
        <ele>663.4470215</ele>
        <time>2014-06-28T05:18:47Z</time>
      </trkpt>
      <trkpt lat="44.32791" lon="2.61288">
        <ele>664.888916</ele>
        <time>2014-06-28T05:18:51Z</time>
      </trkpt>
      <trkpt lat="44.32787" lon="2.61301">
        <ele>665.8503418</ele>
        <time>2014-06-28T05:18:55Z</time>
      </trkpt>
      <trkpt lat="44.32779" lon="2.61321">
        <ele>666.3308105</ele>
        <time>2014-06-28T05:19:02Z</time>
      </trkpt>
      <trkpt lat="44.32774" lon="2.61336">
        <ele>665.8503418</ele>
        <time>2014-06-28T05:19:07Z</time>
      </trkpt>
      <trkpt lat="44.32766" lon="2.61351">
        <ele>665.3696289</ele>
        <time>2014-06-28T05:19:13Z</time>
      </trkpt>
      <trkpt lat="44.32761" lon="2.61366">
        <ele>664.888916</ele>
        <time>2014-06-28T05:19:18Z</time>
      </trkpt>
      <trkpt lat="44.32756" lon="2.61382">
        <ele>665.3696289</ele>
        <time>2014-06-28T05:19:23Z</time>
      </trkpt>
      <trkpt lat="44.32753" lon="2.61399">
        <ele>664.4082031</ele>
        <time>2014-06-28T05:19:28Z</time>
      </trkpt>
      <trkpt lat="44.32749" lon="2.61413">
        <ele>665.3696289</ele>
        <time>2014-06-28T05:19:33Z</time>
      </trkpt>
      <trkpt lat="44.32746" lon="2.6143">
        <ele>666.8115234</ele>
        <time>2014-06-28T05:19:38Z</time>
      </trkpt>
      <trkpt lat="44.32741" lon="2.61454">
        <ele>666.8115234</ele>
        <time>2014-06-28T05:19:45Z</time>
      </trkpt>
      <trkpt lat="44.32738" lon="2.61468">
        <ele>667.2922363</ele>
        <time>2014-06-28T05:19:49Z</time>
      </trkpt>
      <trkpt lat="44.32732" lon="2.6149">
        <ele>666.3308105</ele>
        <time>2014-06-28T05:19:56Z</time>
      </trkpt>
      <trkpt lat="44.3273" lon="2.61504">
        <ele>665.8503418</ele>
        <time>2014-06-28T05:20:00Z</time>
      </trkpt>
      <trkpt lat="44.32727" lon="2.61517">
        <ele>665.3696289</ele>
        <time>2014-06-28T05:20:04Z</time>
      </trkpt>
      <trkpt lat="44.32723" lon="2.61534">
        <ele>664.888916</ele>
        <time>2014-06-28T05:20:09Z</time>
      </trkpt>
      <trkpt lat="44.32718" lon="2.61554">
        <ele>665.3696289</ele>
        <time>2014-06-28T05:20:15Z</time>
      </trkpt>
      <trkpt lat="44.32714" lon="2.61574">
        <ele>664.4082031</ele>
        <time>2014-06-28T05:20:21Z</time>
      </trkpt>
      <trkpt lat="44.3271" lon="2.61594">
        <ele>664.4082031</ele>
        <time>2014-06-28T05:20:27Z</time>
      </trkpt>
      <trkpt lat="44.32707" lon="2.61614">
        <ele>663.9274902</ele>
        <time>2014-06-28T05:20:33Z</time>
      </trkpt>
      <trkpt lat="44.32702" lon="2.61639">
        <ele>664.4082031</ele>
        <time>2014-06-28T05:20:40Z</time>
      </trkpt>
      <trkpt lat="44.32696" lon="2.61666">
        <ele>663.9274902</ele>
        <time>2014-06-28T05:20:48Z</time>
      </trkpt>
      <trkpt lat="44.32692" lon="2.61683">
        <ele>663.9274902</ele>
        <time>2014-06-28T05:20:53Z</time>
      </trkpt>
      <trkpt lat="44.32689" lon="2.61696">
        <ele>663.4470215</ele>
        <time>2014-06-28T05:20:57Z</time>
      </trkpt>
      <trkpt lat="44.32686" lon="2.61709">
        <ele>663.9274902</ele>
        <time>2014-06-28T05:21:01Z</time>
      </trkpt>
      <trkpt lat="44.32682" lon="2.61733">
        <ele>662.9663086</ele>
        <time>2014-06-28T05:21:08Z</time>
      </trkpt>
      <trkpt lat="44.32678" lon="2.61746">
        <ele>662.9663086</ele>
        <time>2014-06-28T05:21:12Z</time>
      </trkpt>
      <trkpt lat="44.32673" lon="2.61774">
        <ele>663.4470215</ele>
        <time>2014-06-28T05:21:20Z</time>
      </trkpt>
      <trkpt lat="44.32672" lon="2.61794">
        <ele>662.9663086</ele>
        <time>2014-06-28T05:21:26Z</time>
      </trkpt>
      <trkpt lat="44.32668" lon="2.61811">
        <ele>663.4470215</ele>
        <time>2014-06-28T05:21:31Z</time>
      </trkpt>
      <trkpt lat="44.32665" lon="2.61825">
        <ele>662.9663086</ele>
        <time>2014-06-28T05:21:35Z</time>
      </trkpt>
      <trkpt lat="44.32662" lon="2.6184">
        <ele>662.4855957</ele>
        <time>2014-06-28T05:21:39Z</time>
      </trkpt>
      <trkpt lat="44.32658" lon="2.61853">
        <ele>662.9663086</ele>
        <time>2014-06-28T05:21:43Z</time>
      </trkpt>
      <trkpt lat="44.32655" lon="2.61874">
        <ele>662.9663086</ele>
        <time>2014-06-28T05:21:50Z</time>
      </trkpt>
      <trkpt lat="44.32651" lon="2.61894">
        <ele>663.4470215</ele>
        <time>2014-06-28T05:21:56Z</time>
      </trkpt>
      <trkpt lat="44.32649" lon="2.61904">
        <ele>663.4470215</ele>
        <time>2014-06-28T05:21:59Z</time>
      </trkpt>
      <trkpt lat="44.32646" lon="2.61917">
        <ele>662.005127</ele>
        <time>2014-06-28T05:22:04Z</time>
      </trkpt>
      <trkpt lat="44.32642" lon="2.6193">
        <ele>662.4855957</ele>
        <time>2014-06-28T05:22:08Z</time>
      </trkpt>
      <trkpt lat="44.32637" lon="2.61947">
        <ele>661.5244141</ele>
        <time>2014-06-28T05:22:14Z</time>
      </trkpt>
      <trkpt lat="44.32629" lon="2.61965">
        <ele>660.0822754</ele>
        <time>2014-06-28T05:22:20Z</time>
      </trkpt>
      <trkpt lat="44.32621" lon="2.61977">
        <ele>659.1210938</ele>
        <time>2014-06-28T05:22:25Z</time>
      </trkpt>
      <trkpt lat="44.32616" lon="2.61998">
        <ele>658.6403809</ele>
        <time>2014-06-28T05:22:31Z</time>
      </trkpt>
      <trkpt lat="44.32614" lon="2.62009">
        <ele>660.0822754</ele>
        <time>2014-06-28T05:22:34Z</time>
      </trkpt>
      <trkpt lat="44.32606" lon="2.62024">
        <ele>661.5244141</ele>
        <time>2014-06-28T05:22:39Z</time>
      </trkpt>
      <trkpt lat="44.32599" lon="2.62034">
        <ele>662.4855957</ele>
        <time>2014-06-28T05:22:42Z</time>
      </trkpt>
      <trkpt lat="44.32596" lon="2.62043">
        <ele>662.9663086</ele>
        <time>2014-06-28T05:22:45Z</time>
      </trkpt>
      <trkpt lat="44.32594" lon="2.62051">
        <ele>662.9663086</ele>
        <time>2014-06-28T05:22:48Z</time>
      </trkpt>
      <trkpt lat="44.32588" lon="2.62068">
        <ele>662.9663086</ele>
        <time>2014-06-28T05:22:54Z</time>
      </trkpt>
      <trkpt lat="44.32582" lon="2.62086">
        <ele>664.4082031</ele>
        <time>2014-06-28T05:23:00Z</time>
      </trkpt>
      <trkpt lat="44.3258" lon="2.62104">
        <ele>665.8503418</ele>
        <time>2014-06-28T05:23:05Z</time>
      </trkpt>
      <trkpt lat="44.32582" lon="2.62124">
        <ele>665.8503418</ele>
        <time>2014-06-28T05:23:11Z</time>
      </trkpt>
      <trkpt lat="44.32583" lon="2.62132">
        <ele>666.3308105</ele>
        <time>2014-06-28T05:23:13Z</time>
      </trkpt>
      <trkpt lat="44.32584" lon="2.6215">
        <ele>666.8115234</ele>
        <time>2014-06-28T05:23:18Z</time>
      </trkpt>
      <trkpt lat="44.32584" lon="2.62153">
        <ele>667.2922363</ele>
        <time>2014-06-28T05:23:19Z</time>
      </trkpt>
      <trkpt lat="44.32587" lon="2.62174">
        <ele>667.7727051</ele>
        <time>2014-06-28T05:23:25Z</time>
      </trkpt>
      <trkpt lat="44.32588" lon="2.62177">
        <ele>668.2536621</ele>
        <time>2014-06-28T05:23:26Z</time>
      </trkpt>
      <trkpt lat="44.32588" lon="2.62194">
        <ele>668.2536621</ele>
        <time>2014-06-28T05:23:31Z</time>
      </trkpt>
      <trkpt lat="44.32593" lon="2.62218">
        <ele>667.2922363</ele>
        <time>2014-06-28T05:23:38Z</time>
      </trkpt>
      <trkpt lat="44.32597" lon="2.62234">
        <ele>667.2922363</ele>
        <time>2014-06-28T05:23:43Z</time>
      </trkpt>
      <trkpt lat="44.32599" lon="2.6225">
        <ele>667.2922363</ele>
        <time>2014-06-28T05:23:48Z</time>
      </trkpt>
      <trkpt lat="44.32602" lon="2.62265">
        <ele>667.2922363</ele>
        <time>2014-06-28T05:23:53Z</time>
      </trkpt>
      <trkpt lat="44.32605" lon="2.62276">
        <ele>667.2922363</ele>
        <time>2014-06-28T05:23:57Z</time>
      </trkpt>
      <trkpt lat="44.32607" lon="2.62291">
        <ele>667.7727051</ele>
        <time>2014-06-28T05:24:02Z</time>
      </trkpt>
      <trkpt lat="44.32607" lon="2.62309">
        <ele>668.734375</ele>
        <time>2014-06-28T05:24:08Z</time>
      </trkpt>
      <trkpt lat="44.32605" lon="2.62327">
        <ele>669.2150879</ele>
        <time>2014-06-28T05:24:14Z</time>
      </trkpt>
      <trkpt lat="44.32604" lon="2.62337">
        <ele>670.1762695</ele>
        <time>2014-06-28T05:24:17Z</time>
      </trkpt>
      <trkpt lat="44.32603" lon="2.62361">
        <ele>672.098877</ele>
        <time>2014-06-28T05:24:24Z</time>
      </trkpt>
      <trkpt lat="44.326" lon="2.62379">
        <ele>672.5795898</ele>
        <time>2014-06-28T05:24:29Z</time>
      </trkpt>
      <trkpt lat="44.32599" lon="2.62398">
        <ele>673.0603027</ele>
        <time>2014-06-28T05:24:35Z</time>
      </trkpt>
      <trkpt lat="44.326" lon="2.62421">
        <ele>674.5021973</ele>
        <time>2014-06-28T05:24:42Z</time>
      </trkpt>
      <trkpt lat="44.326" lon="2.62438">
        <ele>675.4633789</ele>
        <time>2014-06-28T05:24:47Z</time>
      </trkpt>
      <trkpt lat="44.326" lon="2.62455">
        <ele>675.4633789</ele>
        <time>2014-06-28T05:24:52Z</time>
      </trkpt>
      <trkpt lat="44.326" lon="2.62475">
        <ele>675.4633789</ele>
        <time>2014-06-28T05:24:58Z</time>
      </trkpt>
      <trkpt lat="44.326" lon="2.62491">
        <ele>674.9829102</ele>
        <time>2014-06-28T05:25:03Z</time>
      </trkpt>
      <trkpt lat="44.326" lon="2.62509">
        <ele>673.5410156</ele>
        <time>2014-06-28T05:25:09Z</time>
      </trkpt>
      <trkpt lat="44.32599" lon="2.62534">
        <ele>674.0214844</ele>
        <time>2014-06-28T05:25:17Z</time>
      </trkpt>
      <trkpt lat="44.32598" lon="2.62549">
        <ele>674.5021973</ele>
        <time>2014-06-28T05:25:22Z</time>
      </trkpt>
      <trkpt lat="44.32595" lon="2.62572">
        <ele>676.9055176</ele>
        <time>2014-06-28T05:25:29Z</time>
      </trkpt>
      <trkpt lat="44.32592" lon="2.6259">
        <ele>676.9055176</ele>
        <time>2014-06-28T05:25:35Z</time>
      </trkpt>
      <trkpt lat="44.32589" lon="2.62606">
        <ele>677.8666992</ele>
        <time>2014-06-28T05:25:40Z</time>
      </trkpt>
      <trkpt lat="44.32586" lon="2.62621">
        <ele>678.3474121</ele>
        <time>2014-06-28T05:25:45Z</time>
      </trkpt>
      <trkpt lat="44.32581" lon="2.62636">
        <ele>678.828125</ele>
        <time>2014-06-28T05:25:50Z</time>
      </trkpt>
      <trkpt lat="44.32574" lon="2.62655">
        <ele>677.3862305</ele>
        <time>2014-06-28T05:25:57Z</time>
      </trkpt>
      <trkpt lat="44.32567" lon="2.62671">
        <ele>676.9055176</ele>
        <time>2014-06-28T05:26:02Z</time>
      </trkpt>
      <trkpt lat="44.32564" lon="2.62686">
        <ele>677.8666992</ele>
        <time>2014-06-28T05:26:07Z</time>
      </trkpt>
      <trkpt lat="44.32561" lon="2.62692">
        <ele>678.3474121</ele>
        <time>2014-06-28T05:26:09Z</time>
      </trkpt>
      <trkpt lat="44.32556" lon="2.6271">
        <ele>678.828125</ele>
        <time>2014-06-28T05:26:15Z</time>
      </trkpt>
      <trkpt lat="44.32555" lon="2.62716">
        <ele>678.828125</ele>
        <time>2014-06-28T05:26:17Z</time>
      </trkpt>
      <trkpt lat="44.32551" lon="2.62732">
        <ele>680.2700195</ele>
        <time>2014-06-28T05:26:22Z</time>
      </trkpt>
      <trkpt lat="44.32546" lon="2.62753">
        <ele>681.2314453</ele>
        <time>2014-06-28T05:26:28Z</time>
      </trkpt>
      <trkpt lat="44.32539" lon="2.6278">
        <ele>681.2314453</ele>
        <time>2014-06-28T05:26:34Z</time>
      </trkpt>
      <trkpt lat="44.32534" lon="2.62795">
        <ele>682.192627</ele>
        <time>2014-06-28T05:26:38Z</time>
      </trkpt>
      <trkpt lat="44.32528" lon="2.62813">
        <ele>683.1538086</ele>
        <time>2014-06-28T05:26:42Z</time>
      </trkpt>
      <trkpt lat="44.32521" lon="2.62833">
        <ele>683.1538086</ele>
        <time>2014-06-28T05:26:47Z</time>
      </trkpt>
      <trkpt lat="44.32512" lon="2.62861">
        <ele>680.7507324</ele>
        <time>2014-06-28T05:26:54Z</time>
      </trkpt>
      <trkpt lat="44.32506" lon="2.62883">
        <ele>679.3085938</ele>
        <time>2014-06-28T05:26:59Z</time>
      </trkpt>
      <trkpt lat="44.32499" lon="2.62909">
        <ele>678.3474121</ele>
        <time>2014-06-28T05:27:05Z</time>
      </trkpt>
      <trkpt lat="44.32495" lon="2.6293">
        <ele>678.3474121</ele>
        <time>2014-06-28T05:27:10Z</time>
      </trkpt>
      <trkpt lat="44.3249" lon="2.62948">
        <ele>677.8666992</ele>
        <time>2014-06-28T05:27:15Z</time>
      </trkpt>
      <trkpt lat="44.32487" lon="2.62966">
        <ele>675.9440918</ele>
        <time>2014-06-28T05:27:20Z</time>
      </trkpt>
      <trkpt lat="44.32484" lon="2.62981">
        <ele>675.4633789</ele>
        <time>2014-06-28T05:27:25Z</time>
      </trkpt>
      <trkpt lat="44.32483" lon="2.62997">
        <ele>676.4248047</ele>
        <time>2014-06-28T05:27:30Z</time>
      </trkpt>
      <trkpt lat="44.32482" lon="2.63011">
        <ele>677.8666992</ele>
        <time>2014-06-28T05:27:34Z</time>
      </trkpt>
      <trkpt lat="44.32481" lon="2.63027">
        <ele>678.3474121</ele>
        <time>2014-06-28T05:27:38Z</time>
      </trkpt>
      <trkpt lat="44.32478" lon="2.63045">
        <ele>678.3474121</ele>
        <time>2014-06-28T05:27:43Z</time>
      </trkpt>
      <trkpt lat="44.32477" lon="2.63052">
        <ele>678.828125</ele>
        <time>2014-06-28T05:27:45Z</time>
      </trkpt>
      <trkpt lat="44.32476" lon="2.63067">
        <ele>678.828125</ele>
        <time>2014-06-28T05:27:49Z</time>
      </trkpt>
      <trkpt lat="44.32465" lon="2.63094">
        <ele>678.828125</ele>
        <time>2014-06-28T05:27:57Z</time>
      </trkpt>
      <trkpt lat="44.32459" lon="2.63108">
        <ele>677.8666992</ele>
        <time>2014-06-28T05:28:02Z</time>
      </trkpt>
      <trkpt lat="44.32454" lon="2.63119">
        <ele>677.3862305</ele>
        <time>2014-06-28T05:28:07Z</time>
      </trkpt>
      <trkpt lat="44.32456" lon="2.63115">
        <ele>677.3862305</ele>
        <time>2014-06-28T05:28:10Z</time>
      </trkpt>
      <trkpt lat="44.32456" lon="2.63116">
        <ele>677.3862305</ele>
        <time>2014-06-28T05:28:15Z</time>
      </trkpt>
      <trkpt lat="44.32451" lon="2.63126">
        <ele>677.8666992</ele>
        <time>2014-06-28T05:28:20Z</time>
      </trkpt>
      <trkpt lat="44.32441" lon="2.63144">
        <ele>679.3085938</ele>
        <time>2014-06-28T05:28:27Z</time>
      </trkpt>
      <trkpt lat="44.32431" lon="2.63161">
        <ele>680.7507324</ele>
        <time>2014-06-28T05:28:33Z</time>
      </trkpt>
      <trkpt lat="44.32426" lon="2.63171">
        <ele>680.7507324</ele>
        <time>2014-06-28T05:28:38Z</time>
      </trkpt>
      <trkpt lat="44.32426" lon="2.63174">
        <ele>681.2314453</ele>
        <time>2014-06-28T05:28:46Z</time>
      </trkpt>
      <trkpt lat="44.32419" lon="2.63189">
        <ele>680.7507324</ele>
        <time>2014-06-28T05:28:51Z</time>
      </trkpt>
      <trkpt lat="44.32414" lon="2.63201">
        <ele>680.7507324</ele>
        <time>2014-06-28T05:28:55Z</time>
      </trkpt>
      <trkpt lat="44.32408" lon="2.63216">
        <ele>679.7893066</ele>
        <time>2014-06-28T05:29:00Z</time>
      </trkpt>
      <trkpt lat="44.32402" lon="2.63231">
        <ele>678.3474121</ele>
        <time>2014-06-28T05:29:05Z</time>
      </trkpt>
      <trkpt lat="44.32396" lon="2.63245">
        <ele>677.3862305</ele>
        <time>2014-06-28T05:29:10Z</time>
      </trkpt>
      <trkpt lat="44.32388" lon="2.63262">
        <ele>676.9055176</ele>
        <time>2014-06-28T05:29:16Z</time>
      </trkpt>
      <trkpt lat="44.3238" lon="2.63279">
        <ele>677.3862305</ele>
        <time>2014-06-28T05:29:22Z</time>
      </trkpt>
      <trkpt lat="44.32374" lon="2.63291">
        <ele>677.8666992</ele>
        <time>2014-06-28T05:29:26Z</time>
      </trkpt>
      <trkpt lat="44.32368" lon="2.63309">
        <ele>677.8666992</ele>
        <time>2014-06-28T05:29:31Z</time>
      </trkpt>
      <trkpt lat="44.32365" lon="2.63316">
        <ele>677.8666992</ele>
        <time>2014-06-28T05:29:33Z</time>
      </trkpt>
      <trkpt lat="44.32354" lon="2.63338">
        <ele>677.8666992</ele>
        <time>2014-06-28T05:29:40Z</time>
      </trkpt>
      <trkpt lat="44.32351" lon="2.63347">
        <ele>677.8666992</ele>
        <time>2014-06-28T05:29:43Z</time>
      </trkpt>
      <trkpt lat="44.32342" lon="2.63367">
        <ele>678.828125</ele>
        <time>2014-06-28T05:29:49Z</time>
      </trkpt>
      <trkpt lat="44.3233" lon="2.63389">
        <ele>680.7507324</ele>
        <time>2014-06-28T05:29:57Z</time>
      </trkpt>
      <trkpt lat="44.32322" lon="2.63402">
        <ele>682.192627</ele>
        <time>2014-06-28T05:30:02Z</time>
      </trkpt>
      <trkpt lat="44.32315" lon="2.63416">
        <ele>683.1538086</ele>
        <time>2014-06-28T05:30:07Z</time>
      </trkpt>
      <trkpt lat="44.32309" lon="2.63431">
        <ele>684.5961914</ele>
        <time>2014-06-28T05:30:12Z</time>
      </trkpt>
      <trkpt lat="44.323" lon="2.63449">
        <ele>683.6345215</ele>
        <time>2014-06-28T05:30:18Z</time>
      </trkpt>
      <trkpt lat="44.32295" lon="2.6346">
        <ele>683.1538086</ele>
        <time>2014-06-28T05:30:22Z</time>
      </trkpt>
      <trkpt lat="44.32286" lon="2.63476">
        <ele>683.1538086</ele>
        <time>2014-06-28T05:30:28Z</time>
      </trkpt>
      <trkpt lat="44.32279" lon="2.63492">
        <ele>684.1154785</ele>
        <time>2014-06-28T05:30:34Z</time>
      </trkpt>
      <trkpt lat="44.3227" lon="2.63509">
        <ele>685.557373</ele>
        <time>2014-06-28T05:30:40Z</time>
      </trkpt>
      <trkpt lat="44.32262" lon="2.63524">
        <ele>687.4799805</ele>
        <time>2014-06-28T05:30:46Z</time>
      </trkpt>
      <trkpt lat="44.32254" lon="2.63539">
        <ele>688.9221191</ele>
        <time>2014-06-28T05:30:51Z</time>
      </trkpt>
      <trkpt lat="44.32245" lon="2.63554">
        <ele>689.4025879</ele>
        <time>2014-06-28T05:30:57Z</time>
      </trkpt>
      <trkpt lat="44.32237" lon="2.63569">
        <ele>689.8833008</ele>
        <time>2014-06-28T05:31:03Z</time>
      </trkpt>
      <trkpt lat="44.32233" lon="2.63576">
        <ele>690.8444824</ele>
        <time>2014-06-28T05:31:06Z</time>
      </trkpt>
      <trkpt lat="44.32226" lon="2.63593">
        <ele>691.3251953</ele>
        <time>2014-06-28T05:31:11Z</time>
      </trkpt>
      <trkpt lat="44.32223" lon="2.63598">
        <ele>691.3251953</ele>
        <time>2014-06-28T05:31:13Z</time>
      </trkpt>
      <trkpt lat="44.32215" lon="2.63616">
        <ele>691.8059082</ele>
        <time>2014-06-28T05:31:19Z</time>
      </trkpt>
      <trkpt lat="44.32208" lon="2.63631">
        <ele>691.8059082</ele>
        <time>2014-06-28T05:31:25Z</time>
      </trkpt>
      <trkpt lat="44.322" lon="2.63648">
        <ele>690.3640137</ele>
        <time>2014-06-28T05:31:31Z</time>
      </trkpt>
      <trkpt lat="44.32194" lon="2.63661">
        <ele>689.8833008</ele>
        <time>2014-06-28T05:31:36Z</time>
      </trkpt>
      <trkpt lat="44.32191" lon="2.63666">
        <ele>689.8833008</ele>
        <time>2014-06-28T05:31:38Z</time>
      </trkpt>
      <trkpt lat="44.32185" lon="2.63678">
        <ele>688.4414063</ele>
        <time>2014-06-28T05:31:43Z</time>
      </trkpt>
      <trkpt lat="44.3218" lon="2.63688">
        <ele>687.9606934</ele>
        <time>2014-06-28T05:31:47Z</time>
      </trkpt>
      <trkpt lat="44.32172" lon="2.63703">
        <ele>686.5187988</ele>
        <time>2014-06-28T05:31:53Z</time>
      </trkpt>
      <trkpt lat="44.3217" lon="2.63706">
        <ele>686.9992676</ele>
        <time>2014-06-28T05:31:54Z</time>
      </trkpt>
      <trkpt lat="44.32161" lon="2.63724">
        <ele>686.9992676</ele>
        <time>2014-06-28T05:32:00Z</time>
      </trkpt>
      <trkpt lat="44.32151" lon="2.63739">
        <ele>686.5187988</ele>
        <time>2014-06-28T05:32:06Z</time>
      </trkpt>
      <trkpt lat="44.32143" lon="2.63752">
        <ele>686.9992676</ele>
        <time>2014-06-28T05:32:11Z</time>
      </trkpt>
      <trkpt lat="44.32137" lon="2.63764">
        <ele>688.4414063</ele>
        <time>2014-06-28T05:32:15Z</time>
      </trkpt>
      <trkpt lat="44.32129" lon="2.63779">
        <ele>688.9221191</ele>
        <time>2014-06-28T05:32:20Z</time>
      </trkpt>
      <trkpt lat="44.32122" lon="2.63794">
        <ele>689.4025879</ele>
        <time>2014-06-28T05:32:25Z</time>
      </trkpt>
      <trkpt lat="44.32118" lon="2.63807">
        <ele>689.4025879</ele>
        <time>2014-06-28T05:32:29Z</time>
      </trkpt>
      <trkpt lat="44.32113" lon="2.63819">
        <ele>688.4414063</ele>
        <time>2014-06-28T05:32:33Z</time>
      </trkpt>
      <trkpt lat="44.32107" lon="2.63835">
        <ele>688.4414063</ele>
        <time>2014-06-28T05:32:38Z</time>
      </trkpt>
      <trkpt lat="44.32099" lon="2.63853">
        <ele>688.4414063</ele>
        <time>2014-06-28T05:32:44Z</time>
      </trkpt>
      <trkpt lat="44.32088" lon="2.63867">
        <ele>686.9992676</ele>
        <time>2014-06-28T05:32:50Z</time>
      </trkpt>
      <trkpt lat="44.32082" lon="2.63873">
        <ele>685.557373</ele>
        <time>2014-06-28T05:32:53Z</time>
      </trkpt>
      <trkpt lat="44.32063" lon="2.63874">
        <ele>683.6345215</ele>
        <time>2014-06-28T05:33:00Z</time>
      </trkpt>
      <trkpt lat="44.32051" lon="2.63866">
        <ele>682.192627</ele>
        <time>2014-06-28T05:33:05Z</time>
      </trkpt>
      <trkpt lat="44.32034" lon="2.63853">
        <ele>681.2314453</ele>
        <time>2014-06-28T05:33:12Z</time>
      </trkpt>
      <trkpt lat="44.32024" lon="2.63844">
        <ele>681.2314453</ele>
        <time>2014-06-28T05:33:16Z</time>
      </trkpt>
      <trkpt lat="44.32012" lon="2.6383">
        <ele>681.2314453</ele>
        <time>2014-06-28T05:33:22Z</time>
      </trkpt>
      <trkpt lat="44.32" lon="2.63815">
        <ele>681.7119141</ele>
        <time>2014-06-28T05:33:28Z</time>
      </trkpt>
      <trkpt lat="44.31987" lon="2.63801">
        <ele>683.1538086</ele>
        <time>2014-06-28T05:33:34Z</time>
      </trkpt>
      <trkpt lat="44.31976" lon="2.63792">
        <ele>683.6345215</ele>
        <time>2014-06-28T05:33:39Z</time>
      </trkpt>
      <trkpt lat="44.31961" lon="2.63783">
        <ele>684.1154785</ele>
        <time>2014-06-28T05:33:45Z</time>
      </trkpt>
      <trkpt lat="44.31946" lon="2.63775">
        <ele>682.6733398</ele>
        <time>2014-06-28T05:33:51Z</time>
      </trkpt>
      <trkpt lat="44.31932" lon="2.63768">
        <ele>680.7507324</ele>
        <time>2014-06-28T05:33:57Z</time>
      </trkpt>
      <trkpt lat="44.31919" lon="2.63762">
        <ele>679.3085938</ele>
        <time>2014-06-28T05:34:02Z</time>
      </trkpt>
      <trkpt lat="44.31901" lon="2.63756">
        <ele>679.3085938</ele>
        <time>2014-06-28T05:34:09Z</time>
      </trkpt>
      <trkpt lat="44.31887" lon="2.63753">
        <ele>678.828125</ele>
        <time>2014-06-28T05:34:15Z</time>
      </trkpt>
      <trkpt lat="44.31872" lon="2.63751">
        <ele>677.3862305</ele>
        <time>2014-06-28T05:34:21Z</time>
      </trkpt>
      <trkpt lat="44.31861" lon="2.63747">
        <ele>676.4248047</ele>
        <time>2014-06-28T05:34:25Z</time>
      </trkpt>
      <trkpt lat="44.31849" lon="2.63743">
        <ele>674.9829102</ele>
        <time>2014-06-28T05:34:30Z</time>
      </trkpt>
      <trkpt lat="44.31836" lon="2.63736">
        <ele>676.4248047</ele>
        <time>2014-06-28T05:34:35Z</time>
      </trkpt>
      <trkpt lat="44.31824" lon="2.6373">
        <ele>677.3862305</ele>
        <time>2014-06-28T05:34:40Z</time>
      </trkpt>
      <trkpt lat="44.31806" lon="2.63721">
        <ele>676.9055176</ele>
        <time>2014-06-28T05:34:47Z</time>
      </trkpt>
      <trkpt lat="44.31795" lon="2.63716">
        <ele>675.9440918</ele>
        <time>2014-06-28T05:34:51Z</time>
      </trkpt>
      <trkpt lat="44.31783" lon="2.63714">
        <ele>674.9829102</ele>
        <time>2014-06-28T05:34:56Z</time>
      </trkpt>
      <trkpt lat="44.31769" lon="2.63712">
        <ele>673.5410156</ele>
        <time>2014-06-28T05:35:02Z</time>
      </trkpt>
      <trkpt lat="44.31756" lon="2.63712">
        <ele>672.098877</ele>
        <time>2014-06-28T05:35:07Z</time>
      </trkpt>
      <trkpt lat="44.31751" lon="2.63709">
        <ele>671.6181641</ele>
        <time>2014-06-28T05:35:09Z</time>
      </trkpt>
      <trkpt lat="44.31726" lon="2.63709">
        <ele>670.6569824</ele>
        <time>2014-06-28T05:35:18Z</time>
      </trkpt>
      <trkpt lat="44.31714" lon="2.63708">
        <ele>671.1376953</ele>
        <time>2014-06-28T05:35:23Z</time>
      </trkpt>
      <trkpt lat="44.31703" lon="2.63704">
        <ele>670.1762695</ele>
        <time>2014-06-28T05:35:27Z</time>
      </trkpt>
      <trkpt lat="44.31691" lon="2.63699">
        <ele>669.6958008</ele>
        <time>2014-06-28T05:35:32Z</time>
      </trkpt>
      <trkpt lat="44.31677" lon="2.63695">
        <ele>669.6958008</ele>
        <time>2014-06-28T05:35:38Z</time>
      </trkpt>
      <trkpt lat="44.31664" lon="2.63692">
        <ele>671.6181641</ele>
        <time>2014-06-28T05:35:43Z</time>
      </trkpt>
      <trkpt lat="44.31649" lon="2.63686">
        <ele>671.1376953</ele>
        <time>2014-06-28T05:35:49Z</time>
      </trkpt>
      <trkpt lat="44.31636" lon="2.63682">
        <ele>670.1762695</ele>
        <time>2014-06-28T05:35:54Z</time>
      </trkpt>
      <trkpt lat="44.31619" lon="2.63676">
        <ele>667.7727051</ele>
        <time>2014-06-28T05:36:01Z</time>
      </trkpt>
      <trkpt lat="44.31601" lon="2.6367">
        <ele>666.3308105</ele>
        <time>2014-06-28T05:36:08Z</time>
      </trkpt>
      <trkpt lat="44.31584" lon="2.63667">
        <ele>664.888916</ele>
        <time>2014-06-28T05:36:15Z</time>
      </trkpt>
      <trkpt lat="44.3157" lon="2.63662">
        <ele>662.9663086</ele>
        <time>2014-06-28T05:36:21Z</time>
      </trkpt>
      <trkpt lat="44.31555" lon="2.63657">
        <ele>661.5244141</ele>
        <time>2014-06-28T05:36:27Z</time>
      </trkpt>
      <trkpt lat="44.31543" lon="2.6365">
        <ele>661.0437012</ele>
        <time>2014-06-28T05:36:32Z</time>
      </trkpt>
      <trkpt lat="44.3153" lon="2.63642">
        <ele>660.0822754</ele>
        <time>2014-06-28T05:36:37Z</time>
      </trkpt>
      <trkpt lat="44.3152" lon="2.63637">
        <ele>659.1210938</ele>
        <time>2014-06-28T05:36:41Z</time>
      </trkpt>
      <trkpt lat="44.31508" lon="2.6363">
        <ele>656.7177734</ele>
        <time>2014-06-28T05:36:46Z</time>
      </trkpt>
      <trkpt lat="44.31495" lon="2.63618">
        <ele>655.2758789</ele>
        <time>2014-06-28T05:36:52Z</time>
      </trkpt>
      <trkpt lat="44.31484" lon="2.63608">
        <ele>654.3146973</ele>
        <time>2014-06-28T05:36:57Z</time>
      </trkpt>
      <trkpt lat="44.31471" lon="2.63595">
        <ele>652.3918457</ele>
        <time>2014-06-28T05:37:03Z</time>
      </trkpt>
      <trkpt lat="44.31459" lon="2.63587">
        <ele>652.8725586</ele>
        <time>2014-06-28T05:37:08Z</time>
      </trkpt>
      <trkpt lat="44.31447" lon="2.63577">
        <ele>652.8725586</ele>
        <time>2014-06-28T05:37:13Z</time>
      </trkpt>
      <trkpt lat="44.31434" lon="2.63564">
        <ele>651.9111328</ele>
        <time>2014-06-28T05:37:19Z</time>
      </trkpt>
      <trkpt lat="44.31424" lon="2.63551">
        <ele>651.9111328</ele>
        <time>2014-06-28T05:37:24Z</time>
      </trkpt>
      <trkpt lat="44.31415" lon="2.63536">
        <ele>650.949707</ele>
        <time>2014-06-28T05:37:30Z</time>
      </trkpt>
      <trkpt lat="44.3141" lon="2.63524">
        <ele>650.4692383</ele>
        <time>2014-06-28T05:37:36Z</time>
      </trkpt>
      <trkpt lat="44.31407" lon="2.63518">
        <ele>651.9111328</ele>
        <time>2014-06-28T05:37:43Z</time>
      </trkpt>
      <trkpt lat="44.31404" lon="2.63514">
        <ele>653.3532715</ele>
        <time>2014-06-28T05:37:49Z</time>
      </trkpt>
      <trkpt lat="44.31402" lon="2.63512">
        <ele>654.795166</ele>
        <time>2014-06-28T05:37:57Z</time>
      </trkpt>
      <trkpt lat="44.31399" lon="2.63515">
        <ele>654.3146973</ele>
        <time>2014-06-28T05:38:00Z</time>
      </trkpt>
      <trkpt lat="44.31397" lon="2.63529">
        <ele>653.3532715</ele>
        <time>2014-06-28T05:38:04Z</time>
      </trkpt>
      <trkpt lat="44.31399" lon="2.63549">
        <ele>651.9111328</ele>
        <time>2014-06-28T05:38:09Z</time>
      </trkpt>
      <trkpt lat="44.31401" lon="2.63566">
        <ele>650.4692383</ele>
        <time>2014-06-28T05:38:14Z</time>
      </trkpt>
      <trkpt lat="44.31403" lon="2.63578">
        <ele>649.5078125</ele>
        <time>2014-06-28T05:38:18Z</time>
      </trkpt>
      <trkpt lat="44.31404" lon="2.63584">
        <ele>648.5463867</ele>
        <time>2014-06-28T05:38:20Z</time>
      </trkpt>
      <trkpt lat="44.31406" lon="2.63605">
        <ele>647.1044922</ele>
        <time>2014-06-28T05:38:26Z</time>
      </trkpt>
      <trkpt lat="44.31405" lon="2.63613">
        <ele>645.6625977</ele>
        <time>2014-06-28T05:38:28Z</time>
      </trkpt>
      <trkpt lat="44.31401" lon="2.63631">
        <ele>642.7788086</ele>
        <time>2014-06-28T05:38:33Z</time>
      </trkpt>
      <trkpt lat="44.31403" lon="2.63642">
        <ele>641.3366699</ele>
        <time>2014-06-28T05:38:36Z</time>
      </trkpt>
      <trkpt lat="44.31408" lon="2.63652">
        <ele>640.855957</ele>
        <time>2014-06-28T05:38:39Z</time>
      </trkpt>
      <trkpt lat="44.31414" lon="2.63665">
        <ele>639.4140625</ele>
        <time>2014-06-28T05:38:43Z</time>
      </trkpt>
      <trkpt lat="44.31421" lon="2.63675">
        <ele>637.4914551</ele>
        <time>2014-06-28T05:38:47Z</time>
      </trkpt>
      <trkpt lat="44.31417" lon="2.63696">
        <ele>634.6074219</ele>
        <time>2014-06-28T05:38:53Z</time>
      </trkpt>
      <trkpt lat="44.31408" lon="2.63715">
        <ele>632.6848145</ele>
        <time>2014-06-28T05:38:58Z</time>
      </trkpt>
      <trkpt lat="44.31404" lon="2.63728">
        <ele>630.762207</ele>
        <time>2014-06-28T05:39:02Z</time>
      </trkpt>
      <trkpt lat="44.31399" lon="2.63744">
        <ele>628.8395996</ele>
        <time>2014-06-28T05:39:07Z</time>
      </trkpt>
      <trkpt lat="44.31394" lon="2.63759">
        <ele>628.8395996</ele>
        <time>2014-06-28T05:39:12Z</time>
      </trkpt>
      <trkpt lat="44.31393" lon="2.63773">
        <ele>629.8007813</ele>
        <time>2014-06-28T05:39:16Z</time>
      </trkpt>
      <trkpt lat="44.31392" lon="2.63781">
        <ele>629.3200684</ele>
        <time>2014-06-28T05:39:18Z</time>
      </trkpt>
      <trkpt lat="44.31392" lon="2.63799">
        <ele>628.3588867</ele>
        <time>2014-06-28T05:39:23Z</time>
      </trkpt>
      <trkpt lat="44.31391" lon="2.63803">
        <ele>628.3588867</ele>
        <time>2014-06-28T05:39:24Z</time>
      </trkpt>
      <trkpt lat="44.31395" lon="2.63824">
        <ele>627.8781738</ele>
        <time>2014-06-28T05:39:30Z</time>
      </trkpt>
      <trkpt lat="44.31401" lon="2.63842">
        <ele>625.9555664</ele>
        <time>2014-06-28T05:39:35Z</time>
      </trkpt>
      <trkpt lat="44.31408" lon="2.63859">
        <ele>623.5524902</ele>
        <time>2014-06-28T05:39:40Z</time>
      </trkpt>
      <trkpt lat="44.3141" lon="2.63873">
        <ele>622.1103516</ele>
        <time>2014-06-28T05:39:44Z</time>
      </trkpt>
      <trkpt lat="44.31416" lon="2.63889">
        <ele>621.6296387</ele>
        <time>2014-06-28T05:39:49Z</time>
      </trkpt>
      <trkpt lat="44.31427" lon="2.63907">
        <ele>622.1103516</ele>
        <time>2014-06-28T05:39:55Z</time>
      </trkpt>
      <trkpt lat="44.31435" lon="2.6392">
        <ele>621.6296387</ele>
        <time>2014-06-28T05:39:59Z</time>
      </trkpt>
      <trkpt lat="44.3144" lon="2.63935">
        <ele>622.5910645</ele>
        <time>2014-06-28T05:40:04Z</time>
      </trkpt>
      <trkpt lat="44.31447" lon="2.63945">
        <ele>624.032959</ele>
        <time>2014-06-28T05:40:08Z</time>
      </trkpt>
      <trkpt lat="44.31456" lon="2.63957">
        <ele>624.9943848</ele>
        <time>2014-06-28T05:40:13Z</time>
      </trkpt>
      <trkpt lat="44.31463" lon="2.63968">
        <ele>626.4362793</ele>
        <time>2014-06-28T05:40:18Z</time>
      </trkpt>
      <trkpt lat="44.3147" lon="2.63983">
        <ele>626.9169922</ele>
        <time>2014-06-28T05:40:24Z</time>
      </trkpt>
      <trkpt lat="44.3148" lon="2.63995">
        <ele>627.3977051</ele>
        <time>2014-06-28T05:40:30Z</time>
      </trkpt>
      <trkpt lat="44.31491" lon="2.64004">
        <ele>627.8781738</ele>
        <time>2014-06-28T05:40:36Z</time>
      </trkpt>
      <trkpt lat="44.315" lon="2.64016">
        <ele>626.4362793</ele>
        <time>2014-06-28T05:40:42Z</time>
      </trkpt>
      <trkpt lat="44.31509" lon="2.64028">
        <ele>626.9169922</ele>
        <time>2014-06-28T05:40:47Z</time>
      </trkpt>
      <trkpt lat="44.31517" lon="2.64041">
        <ele>626.9169922</ele>
        <time>2014-06-28T05:40:52Z</time>
      </trkpt>
      <trkpt lat="44.31522" lon="2.64053">
        <ele>628.8395996</ele>
        <time>2014-06-28T05:40:56Z</time>
      </trkpt>
      <trkpt lat="44.31526" lon="2.64068">
        <ele>628.8395996</ele>
        <time>2014-06-28T05:41:01Z</time>
      </trkpt>
      <trkpt lat="44.31527" lon="2.64071">
        <ele>629.3200684</ele>
        <time>2014-06-28T05:41:02Z</time>
      </trkpt>
      <trkpt lat="44.3153" lon="2.64095">
        <ele>629.8007813</ele>
        <time>2014-06-28T05:41:09Z</time>
      </trkpt>
      <trkpt lat="44.31529" lon="2.64114">
        <ele>629.8007813</ele>
        <time>2014-06-28T05:41:14Z</time>
      </trkpt>
      <trkpt lat="44.31532" lon="2.64133">
        <ele>630.2814941</ele>
        <time>2014-06-28T05:41:20Z</time>
      </trkpt>
      <trkpt lat="44.31534" lon="2.64139">
        <ele>631.2429199</ele>
        <time>2014-06-28T05:41:22Z</time>
      </trkpt>
      <trkpt lat="44.3154" lon="2.64148">
        <ele>632.2041016</ele>
        <time>2014-06-28T05:41:26Z</time>
      </trkpt>
      <trkpt lat="44.31548" lon="2.64161">
        <ele>633.1652832</ele>
        <time>2014-06-28T05:41:31Z</time>
      </trkpt>
      <trkpt lat="44.31558" lon="2.64172">
        <ele>634.126709</ele>
        <time>2014-06-28T05:41:36Z</time>
      </trkpt>
      <trkpt lat="44.31567" lon="2.64186">
        <ele>635.0881348</ele>
        <time>2014-06-28T05:41:42Z</time>
      </trkpt>
      <trkpt lat="44.31571" lon="2.64194">
        <ele>635.5686035</ele>
        <time>2014-06-28T05:41:45Z</time>
      </trkpt>
      <trkpt lat="44.31579" lon="2.64205">
        <ele>635.5686035</ele>
        <time>2014-06-28T05:41:50Z</time>
      </trkpt>
      <trkpt lat="44.31585" lon="2.64219">
        <ele>634.126709</ele>
        <time>2014-06-28T05:41:56Z</time>
      </trkpt>
      <trkpt lat="44.31593" lon="2.64233">
        <ele>633.6459961</ele>
        <time>2014-06-28T05:42:01Z</time>
      </trkpt>
      <trkpt lat="44.31596" lon="2.6424">
        <ele>634.126709</ele>
        <time>2014-06-28T05:42:04Z</time>
      </trkpt>
      <trkpt lat="44.31598" lon="2.6426">
        <ele>635.0881348</ele>
        <time>2014-06-28T05:42:10Z</time>
      </trkpt>
      <trkpt lat="44.31603" lon="2.64272">
        <ele>636.0495605</ele>
        <time>2014-06-28T05:42:14Z</time>
      </trkpt>
      <trkpt lat="44.31609" lon="2.64291">
        <ele>636.0495605</ele>
        <time>2014-06-28T05:42:20Z</time>
      </trkpt>
      <trkpt lat="44.31612" lon="2.64304">
        <ele>635.5686035</ele>
        <time>2014-06-28T05:42:24Z</time>
      </trkpt>
      <trkpt lat="44.31617" lon="2.64313">
        <ele>635.0881348</ele>
        <time>2014-06-28T05:42:27Z</time>
      </trkpt>
      <trkpt lat="44.31622" lon="2.64324">
        <ele>636.0495605</ele>
        <time>2014-06-28T05:42:31Z</time>
      </trkpt>
      <trkpt lat="44.31628" lon="2.64335">
        <ele>636.0495605</ele>
        <time>2014-06-28T05:42:35Z</time>
      </trkpt>
      <trkpt lat="44.3163" lon="2.6434">
        <ele>635.5686035</ele>
        <time>2014-06-28T05:42:37Z</time>
      </trkpt>
      <trkpt lat="44.31626" lon="2.64357">
        <ele>634.126709</ele>
        <time>2014-06-28T05:42:42Z</time>
      </trkpt>
      <trkpt lat="44.31624" lon="2.64361">
        <ele>634.6074219</ele>
        <time>2014-06-28T05:42:44Z</time>
      </trkpt>
      <trkpt lat="44.31617" lon="2.6438">
        <ele>635.0881348</ele>
        <time>2014-06-28T05:42:52Z</time>
      </trkpt>
      <trkpt lat="44.31615" lon="2.64393">
        <ele>636.0495605</ele>
        <time>2014-06-28T05:42:57Z</time>
      </trkpt>
      <trkpt lat="44.31614" lon="2.64406">
        <ele>635.5686035</ele>
        <time>2014-06-28T05:43:02Z</time>
      </trkpt>
      <trkpt lat="44.31613" lon="2.64409">
        <ele>635.5686035</ele>
        <time>2014-06-28T05:43:03Z</time>
      </trkpt>
      <trkpt lat="44.31607" lon="2.64423">
        <ele>637.0107422</ele>
        <time>2014-06-28T05:43:08Z</time>
      </trkpt>
      <trkpt lat="44.31605" lon="2.64432">
        <ele>637.4914551</ele>
        <time>2014-06-28T05:43:11Z</time>
      </trkpt>
      <trkpt lat="44.31605" lon="2.64453">
        <ele>640.3754883</ele>
        <time>2014-06-28T05:43:17Z</time>
      </trkpt>
      <trkpt lat="44.31605" lon="2.64457">
        <ele>640.855957</ele>
        <time>2014-06-28T05:43:18Z</time>
      </trkpt>
      <trkpt lat="44.31605" lon="2.64475">
        <ele>641.3366699</ele>
        <time>2014-06-28T05:43:23Z</time>
      </trkpt>
      <trkpt lat="44.31606" lon="2.64495">
        <ele>643.2592773</ele>
        <time>2014-06-28T05:43:29Z</time>
      </trkpt>
      <trkpt lat="44.31606" lon="2.64512">
        <ele>644.7011719</ele>
        <time>2014-06-28T05:43:34Z</time>
      </trkpt>
      <trkpt lat="44.31606" lon="2.64529">
        <ele>645.1818848</ele>
        <time>2014-06-28T05:43:39Z</time>
      </trkpt>
      <trkpt lat="44.31599" lon="2.64544">
        <ele>644.2207031</ele>
        <time>2014-06-28T05:43:44Z</time>
      </trkpt>
      <trkpt lat="44.31589" lon="2.64557">
        <ele>643.2592773</ele>
        <time>2014-06-28T05:43:49Z</time>
      </trkpt>
      <trkpt lat="44.31579" lon="2.64568">
        <ele>642.7788086</ele>
        <time>2014-06-28T05:43:54Z</time>
      </trkpt>
      <trkpt lat="44.31569" lon="2.64579">
        <ele>642.2980957</ele>
        <time>2014-06-28T05:44:00Z</time>
      </trkpt>
      <trkpt lat="44.31571" lon="2.64596">
        <ele>643.7399902</ele>
        <time>2014-06-28T05:44:05Z</time>
      </trkpt>
      <trkpt lat="44.31571" lon="2.64616">
        <ele>647.1044922</ele>
        <time>2014-06-28T05:44:11Z</time>
      </trkpt>
      <trkpt lat="44.31573" lon="2.64632">
        <ele>650.4692383</ele>
        <time>2014-06-28T05:44:16Z</time>
      </trkpt>
      <trkpt lat="44.31568" lon="2.64654">
        <ele>651.4304199</ele>
        <time>2014-06-28T05:44:23Z</time>
      </trkpt>
      <trkpt lat="44.3156" lon="2.64668">
        <ele>649.9885254</ele>
        <time>2014-06-28T05:44:29Z</time>
      </trkpt>
      <trkpt lat="44.31557" lon="2.64673">
        <ele>649.9885254</ele>
        <time>2014-06-28T05:44:31Z</time>
      </trkpt>
      <trkpt lat="44.3155" lon="2.64683">
        <ele>648.5463867</ele>
        <time>2014-06-28T05:44:36Z</time>
      </trkpt>
      <trkpt lat="44.31548" lon="2.64688">
        <ele>648.5463867</ele>
        <time>2014-06-28T05:44:38Z</time>
      </trkpt>
      <trkpt lat="44.31542" lon="2.64703">
        <ele>648.5463867</ele>
        <time>2014-06-28T05:44:44Z</time>
      </trkpt>
      <trkpt lat="44.31544" lon="2.64716">
        <ele>649.5078125</ele>
        <time>2014-06-28T05:44:49Z</time>
      </trkpt>
      <trkpt lat="44.31547" lon="2.64724">
        <ele>650.949707</ele>
        <time>2014-06-28T05:44:53Z</time>
      </trkpt>
      <trkpt lat="44.31551" lon="2.64737">
        <ele>652.3918457</ele>
        <time>2014-06-28T05:45:00Z</time>
      </trkpt>
      <trkpt lat="44.31557" lon="2.64748">
        <ele>655.7565918</ele>
        <time>2014-06-28T05:45:07Z</time>
      </trkpt>
      <trkpt lat="44.31559" lon="2.64754">
        <ele>656.2370605</ele>
        <time>2014-06-28T05:45:10Z</time>
      </trkpt>
      <trkpt lat="44.31559" lon="2.64759">
        <ele>657.1984863</ele>
        <time>2014-06-28T05:45:12Z</time>
      </trkpt>
      <trkpt lat="44.31563" lon="2.64771">
        <ele>660.0822754</ele>
        <time>2014-06-28T05:45:17Z</time>
      </trkpt>
      <trkpt lat="44.31565" lon="2.64787">
        <ele>661.5244141</ele>
        <time>2014-06-28T05:45:22Z</time>
      </trkpt>
      <trkpt lat="44.31568" lon="2.64801">
        <ele>661.5244141</ele>
        <time>2014-06-28T05:45:27Z</time>
      </trkpt>
      <trkpt lat="44.31568" lon="2.64805">
        <ele>661.5244141</ele>
        <time>2014-06-28T05:45:28Z</time>
      </trkpt>
      <trkpt lat="44.31567" lon="2.64823">
        <ele>663.9274902</ele>
        <time>2014-06-28T05:45:34Z</time>
      </trkpt>
      <trkpt lat="44.31567" lon="2.64833">
        <ele>665.8503418</ele>
        <time>2014-06-28T05:45:38Z</time>
      </trkpt>
      <trkpt lat="44.31567" lon="2.64846">
        <ele>668.2536621</ele>
        <time>2014-06-28T05:45:44Z</time>
      </trkpt>
      <trkpt lat="44.31568" lon="2.64858">
        <ele>669.6958008</ele>
        <time>2014-06-28T05:45:50Z</time>
      </trkpt>
      <trkpt lat="44.3157" lon="2.64875">
        <ele>670.1762695</ele>
        <time>2014-06-28T05:45:59Z</time>
      </trkpt>
      <trkpt lat="44.31574" lon="2.6489">
        <ele>669.6958008</ele>
        <time>2014-06-28T05:46:07Z</time>
      </trkpt>
      <trkpt lat="44.31577" lon="2.64905">
        <ele>670.6569824</ele>
        <time>2014-06-28T05:46:15Z</time>
      </trkpt>
      <trkpt lat="44.31578" lon="2.64921">
        <ele>673.0603027</ele>
        <time>2014-06-28T05:46:22Z</time>
      </trkpt>
      <trkpt lat="44.31577" lon="2.64933">
        <ele>674.5021973</ele>
        <time>2014-06-28T05:46:28Z</time>
      </trkpt>
      <trkpt lat="44.31577" lon="2.64949">
        <ele>676.9055176</ele>
        <time>2014-06-28T05:46:36Z</time>
      </trkpt>
      <trkpt lat="44.31579" lon="2.64967">
        <ele>678.828125</ele>
        <time>2014-06-28T05:46:45Z</time>
      </trkpt>
      <trkpt lat="44.31587" lon="2.64975">
        <ele>679.7893066</ele>
        <time>2014-06-28T05:46:52Z</time>
      </trkpt>
      <trkpt lat="44.31597" lon="2.64979">
        <ele>682.192627</ele>
        <time>2014-06-28T05:46:58Z</time>
      </trkpt>
      <trkpt lat="44.31607" lon="2.64982">
        <ele>684.1154785</ele>
        <time>2014-06-28T05:47:03Z</time>
      </trkpt>
      <trkpt lat="44.31618" lon="2.64988">
        <ele>685.557373</ele>
        <time>2014-06-28T05:47:09Z</time>
      </trkpt>
      <trkpt lat="44.31627" lon="2.64997">
        <ele>684.5961914</ele>
        <time>2014-06-28T05:47:15Z</time>
      </trkpt>
      <trkpt lat="44.31635" lon="2.65005">
        <ele>683.6345215</ele>
        <time>2014-06-28T05:47:20Z</time>
      </trkpt>
      <trkpt lat="44.31642" lon="2.65011">
        <ele>683.6345215</ele>
        <time>2014-06-28T05:47:25Z</time>
      </trkpt>
      <trkpt lat="44.31652" lon="2.65018">
        <ele>684.5961914</ele>
        <time>2014-06-28T05:47:30Z</time>
      </trkpt>
      <trkpt lat="44.31659" lon="2.65027">
        <ele>685.557373</ele>
        <time>2014-06-28T05:47:35Z</time>
      </trkpt>
      <trkpt lat="44.31667" lon="2.65033">
        <ele>686.0380859</ele>
        <time>2014-06-28T05:47:39Z</time>
      </trkpt>
      <trkpt lat="44.31674" lon="2.65043">
        <ele>685.557373</ele>
        <time>2014-06-28T05:47:44Z</time>
      </trkpt>
      <trkpt lat="44.3168" lon="2.65052">
        <ele>686.5187988</ele>
        <time>2014-06-28T05:47:49Z</time>
      </trkpt>
      <trkpt lat="44.31687" lon="2.65067">
        <ele>688.9221191</ele>
        <time>2014-06-28T05:47:56Z</time>
      </trkpt>
      <trkpt lat="44.31691" lon="2.65077">
        <ele>688.9221191</ele>
        <time>2014-06-28T05:48:00Z</time>
      </trkpt>
      <trkpt lat="44.31691" lon="2.65087">
        <ele>688.9221191</ele>
        <time>2014-06-28T05:48:04Z</time>
      </trkpt>
      <trkpt lat="44.31699" lon="2.65102">
        <ele>693.7285156</ele>
        <time>2014-06-28T05:48:11Z</time>
      </trkpt>
      <trkpt lat="44.31701" lon="2.65119">
        <ele>696.1318359</ele>
        <time>2014-06-28T05:48:17Z</time>
      </trkpt>
      <trkpt lat="44.31702" lon="2.65136">
        <ele>698.5349121</ele>
        <time>2014-06-28T05:48:23Z</time>
      </trkpt>
      <trkpt lat="44.31699" lon="2.65153">
        <ele>699.4963379</ele>
        <time>2014-06-28T05:48:29Z</time>
      </trkpt>
      <trkpt lat="44.31698" lon="2.6517">
        <ele>701.4191895</ele>
        <time>2014-06-28T05:48:35Z</time>
      </trkpt>
      <trkpt lat="44.31694" lon="2.65184">
        <ele>702.861084</ele>
        <time>2014-06-28T05:48:40Z</time>
      </trkpt>
      <trkpt lat="44.31691" lon="2.65197">
        <ele>703.8225098</ele>
        <time>2014-06-28T05:48:45Z</time>
      </trkpt>
      <trkpt lat="44.31689" lon="2.65212">
        <ele>704.7836914</ele>
        <time>2014-06-28T05:48:50Z</time>
      </trkpt>
      <trkpt lat="44.31686" lon="2.65229">
        <ele>706.2255859</ele>
        <time>2014-06-28T05:48:56Z</time>
      </trkpt>
      <trkpt lat="44.31683" lon="2.65244">
        <ele>706.2255859</ele>
        <time>2014-06-28T05:49:01Z</time>
      </trkpt>
      <trkpt lat="44.31678" lon="2.65266">
        <ele>707.1870117</ele>
        <time>2014-06-28T05:49:08Z</time>
      </trkpt>
      <trkpt lat="44.31675" lon="2.65281">
        <ele>708.1484375</ele>
        <time>2014-06-28T05:49:13Z</time>
      </trkpt>
      <trkpt lat="44.31671" lon="2.65294">
        <ele>708.6289063</ele>
        <time>2014-06-28T05:49:17Z</time>
      </trkpt>
      <trkpt lat="44.3167" lon="2.65311">
        <ele>709.1096191</ele>
        <time>2014-06-28T05:49:23Z</time>
      </trkpt>
      <trkpt lat="44.3167" lon="2.65327">
        <ele>710.0708008</ele>
        <time>2014-06-28T05:49:28Z</time>
      </trkpt>
      <trkpt lat="44.31668" lon="2.65343">
        <ele>711.9936523</ele>
        <time>2014-06-28T05:49:33Z</time>
      </trkpt>
      <trkpt lat="44.31671" lon="2.65356">
        <ele>712.954834</ele>
        <time>2014-06-28T05:49:38Z</time>
      </trkpt>
      <trkpt lat="44.31671" lon="2.65356">
        <ele>712.954834</ele>
        <time>2014-06-28T05:49:39Z</time>
      </trkpt>
      <trkpt lat="44.3167" lon="2.65357">
        <ele>712.954834</ele>
        <time>2014-06-28T05:49:46Z</time>
      </trkpt>
      <trkpt lat="44.31671" lon="2.65362">
        <ele>712.954834</ele>
        <time>2014-06-28T05:49:52Z</time>
      </trkpt>
      <trkpt lat="44.31674" lon="2.65371">
        <ele>712.954834</ele>
        <time>2014-06-28T05:49:57Z</time>
      </trkpt>
      <trkpt lat="44.31682" lon="2.65387">
        <ele>711.9936523</ele>
        <time>2014-06-28T05:50:03Z</time>
      </trkpt>
      <trkpt lat="44.31691" lon="2.65398">
        <ele>712.954834</ele>
        <time>2014-06-28T05:50:08Z</time>
      </trkpt>
      <trkpt lat="44.31693" lon="2.65402">
        <ele>713.4355469</ele>
        <time>2014-06-28T05:50:10Z</time>
      </trkpt>
      <trkpt lat="44.31701" lon="2.6541">
        <ele>713.4355469</ele>
        <time>2014-06-28T05:50:14Z</time>
      </trkpt>
      <trkpt lat="44.3171" lon="2.65424">
        <ele>712.954834</ele>
        <time>2014-06-28T05:50:20Z</time>
      </trkpt>
      <trkpt lat="44.31714" lon="2.65429">
        <ele>712.4741211</ele>
        <time>2014-06-28T05:50:24Z</time>
      </trkpt>
      <trkpt lat="44.31719" lon="2.65441">
        <ele>711.5129395</ele>
        <time>2014-06-28T05:50:29Z</time>
      </trkpt>
      <trkpt lat="44.31723" lon="2.65453">
        <ele>709.1096191</ele>
        <time>2014-06-28T05:50:33Z</time>
      </trkpt>
      <trkpt lat="44.31724" lon="2.65462">
        <ele>708.6289063</ele>
        <time>2014-06-28T05:50:36Z</time>
      </trkpt>
      <trkpt lat="44.31726" lon="2.65472">
        <ele>707.6677246</ele>
        <time>2014-06-28T05:50:39Z</time>
      </trkpt>
      <trkpt lat="44.31729" lon="2.65494">
        <ele>708.1484375</ele>
        <time>2014-06-28T05:50:45Z</time>
      </trkpt>
      <trkpt lat="44.31727" lon="2.65509">
        <ele>707.6677246</ele>
        <time>2014-06-28T05:50:49Z</time>
      </trkpt>
      <trkpt lat="44.31729" lon="2.65522">
        <ele>707.1870117</ele>
        <time>2014-06-28T05:50:53Z</time>
      </trkpt>
      <trkpt lat="44.31729" lon="2.65534">
        <ele>706.2255859</ele>
        <time>2014-06-28T05:50:57Z</time>
      </trkpt>
      <trkpt lat="44.31729" lon="2.6554">
        <ele>704.7836914</ele>
        <time>2014-06-28T05:50:59Z</time>
      </trkpt>
      <trkpt lat="44.31727" lon="2.65555">
        <ele>703.8225098</ele>
        <time>2014-06-28T05:51:04Z</time>
      </trkpt>
      <trkpt lat="44.31727" lon="2.65567">
        <ele>703.8225098</ele>
        <time>2014-06-28T05:51:08Z</time>
      </trkpt>
      <trkpt lat="44.31728" lon="2.65592">
        <ele>703.3417969</ele>
        <time>2014-06-28T05:51:15Z</time>
      </trkpt>
      <trkpt lat="44.31726" lon="2.65612">
        <ele>703.3417969</ele>
        <time>2014-06-28T05:51:21Z</time>
      </trkpt>
      <trkpt lat="44.31725" lon="2.65622">
        <ele>703.3417969</ele>
        <time>2014-06-28T05:51:24Z</time>
      </trkpt>
      <trkpt lat="44.31726" lon="2.65636">
        <ele>700.4580078</ele>
        <time>2014-06-28T05:51:29Z</time>
      </trkpt>
      <trkpt lat="44.31731" lon="2.65654">
        <ele>701.8999023</ele>
        <time>2014-06-28T05:51:35Z</time>
      </trkpt>
      <trkpt lat="44.31736" lon="2.65673">
        <ele>700.9384766</ele>
        <time>2014-06-28T05:51:41Z</time>
      </trkpt>
      <trkpt lat="44.31739" lon="2.65687">
        <ele>700.4580078</ele>
        <time>2014-06-28T05:51:46Z</time>
      </trkpt>
      <trkpt lat="44.31742" lon="2.65693">
        <ele>700.4580078</ele>
        <time>2014-06-28T05:51:48Z</time>
      </trkpt>
      <trkpt lat="44.31755" lon="2.65707">
        <ele>700.9384766</ele>
        <time>2014-06-28T05:51:55Z</time>
      </trkpt>
      <trkpt lat="44.31759" lon="2.65719">
        <ele>701.4191895</ele>
        <time>2014-06-28T05:52:00Z</time>
      </trkpt>
      <trkpt lat="44.31765" lon="2.65732">
        <ele>702.3803711</ele>
        <time>2014-06-28T05:52:05Z</time>
      </trkpt>
      <trkpt lat="44.31772" lon="2.65744">
        <ele>704.3032227</ele>
        <time>2014-06-28T05:52:10Z</time>
      </trkpt>
      <trkpt lat="44.31777" lon="2.65752">
        <ele>705.2644043</ele>
        <time>2014-06-28T05:52:14Z</time>
      </trkpt>
      <trkpt lat="44.31784" lon="2.65763">
        <ele>705.2644043</ele>
        <time>2014-06-28T05:52:19Z</time>
      </trkpt>
      <trkpt lat="44.31786" lon="2.65767">
        <ele>705.2644043</ele>
        <time>2014-06-28T05:52:21Z</time>
      </trkpt>
      <trkpt lat="44.31795" lon="2.65782">
        <ele>704.3032227</ele>
        <time>2014-06-28T05:52:27Z</time>
      </trkpt>
      <trkpt lat="44.31802" lon="2.65792">
        <ele>703.3417969</ele>
        <time>2014-06-28T05:52:32Z</time>
      </trkpt>
      <trkpt lat="44.3181" lon="2.65805">
        <ele>704.7836914</ele>
        <time>2014-06-28T05:52:38Z</time>
      </trkpt>
      <trkpt lat="44.31818" lon="2.65817">
        <ele>705.7451172</ele>
        <time>2014-06-28T05:52:44Z</time>
      </trkpt>
      <trkpt lat="44.31821" lon="2.65821">
        <ele>706.2255859</ele>
        <time>2014-06-28T05:52:46Z</time>
      </trkpt>
      <trkpt lat="44.31833" lon="2.65831">
        <ele>711.9936523</ele>
        <time>2014-06-28T05:52:51Z</time>
      </trkpt>
      <trkpt lat="44.31839" lon="2.6584">
        <ele>713.4355469</ele>
        <time>2014-06-28T05:52:56Z</time>
      </trkpt>
      <trkpt lat="44.31841" lon="2.65844">
        <ele>713.4355469</ele>
        <time>2014-06-28T05:52:58Z</time>
      </trkpt>
      <trkpt lat="44.31853" lon="2.65848">
        <ele>718.2421875</ele>
        <time>2014-06-28T05:53:02Z</time>
      </trkpt>
      <trkpt lat="44.31862" lon="2.65859">
        <ele>720.6455078</ele>
        <time>2014-06-28T05:53:08Z</time>
      </trkpt>
      <trkpt lat="44.31867" lon="2.65869">
        <ele>720.6455078</ele>
        <time>2014-06-28T05:53:13Z</time>
      </trkpt>
      <trkpt lat="44.31872" lon="2.65874">
        <ele>721.1262207</ele>
        <time>2014-06-28T05:53:17Z</time>
      </trkpt>
      <trkpt lat="44.31874" lon="2.65881">
        <ele>722.5681152</ele>
        <time>2014-06-28T05:53:22Z</time>
      </trkpt>
      <trkpt lat="44.3187" lon="2.65888">
        <ele>723.0488281</ele>
        <time>2014-06-28T05:53:28Z</time>
      </trkpt>
      <trkpt lat="44.31866" lon="2.65896">
        <ele>723.529541</ele>
        <time>2014-06-28T05:53:34Z</time>
      </trkpt>
      <trkpt lat="44.31862" lon="2.65905">
        <ele>723.529541</ele>
        <time>2014-06-28T05:53:40Z</time>
      </trkpt>
      <trkpt lat="44.31858" lon="2.65915">
        <ele>724.0100098</ele>
        <time>2014-06-28T05:53:46Z</time>
      </trkpt>
      <trkpt lat="44.31855" lon="2.65922">
        <ele>725.4519043</ele>
        <time>2014-06-28T05:53:52Z</time>
      </trkpt>
      <trkpt lat="44.31851" lon="2.65934">
        <ele>726.4133301</ele>
        <time>2014-06-28T05:53:59Z</time>
      </trkpt>
      <trkpt lat="44.31848" lon="2.65948">
        <ele>728.8166504</ele>
        <time>2014-06-28T05:54:07Z</time>
      </trkpt>
      <trkpt lat="44.31848" lon="2.65959">
        <ele>732.1813965</ele>
        <time>2014-06-28T05:54:13Z</time>
      </trkpt>
      <trkpt lat="44.31849" lon="2.65967">
        <ele>734.1040039</ele>
        <time>2014-06-28T05:54:17Z</time>
      </trkpt>
      <trkpt lat="44.31851" lon="2.65979">
        <ele>736.987793</ele>
        <time>2014-06-28T05:54:25Z</time>
      </trkpt>
      <trkpt lat="44.31854" lon="2.65989">
        <ele>739.3911133</ele>
        <time>2014-06-28T05:54:33Z</time>
      </trkpt>
      <trkpt lat="44.31855" lon="2.65996">
        <ele>739.8718262</ele>
        <time>2014-06-28T05:54:38Z</time>
      </trkpt>
      <trkpt lat="44.31859" lon="2.66006">
        <ele>740.8330078</ele>
        <time>2014-06-28T05:54:44Z</time>
      </trkpt>
      <trkpt lat="44.31861" lon="2.6601">
        <ele>741.7944336</ele>
        <time>2014-06-28T05:54:47Z</time>
      </trkpt>
      <trkpt lat="44.31867" lon="2.66007">
        <ele>742.2751465</ele>
        <time>2014-06-28T05:54:54Z</time>
      </trkpt>
      <trkpt lat="44.31871" lon="2.65996">
        <ele>743.2363281</ele>
        <time>2014-06-28T05:55:04Z</time>
      </trkpt>
      <trkpt lat="44.31871" lon="2.65992">
        <ele>743.2363281</ele>
        <time>2014-06-28T05:55:12Z</time>
      </trkpt>
      <trkpt lat="44.31872" lon="2.65985">
        <ele>744.6782227</ele>
        <time>2014-06-28T05:55:42Z</time>
      </trkpt>
      <trkpt lat="44.31877" lon="2.65974">
        <ele>744.1977539</ele>
        <time>2014-06-28T05:55:52Z</time>
      </trkpt>
      <trkpt lat="44.31878" lon="2.65971">
        <ele>744.1977539</ele>
        <time>2014-06-28T05:55:59Z</time>
      </trkpt>
      <trkpt lat="44.3188" lon="2.65966">
        <ele>744.6782227</ele>
        <time>2014-06-28T05:56:14Z</time>
      </trkpt>
      <trkpt lat="44.31884" lon="2.65957">
        <ele>743.2363281</ele>
        <time>2014-06-28T05:56:21Z</time>
      </trkpt>
      <trkpt lat="44.31888" lon="2.65951">
        <ele>742.2751465</ele>
        <time>2014-06-28T05:56:26Z</time>
      </trkpt>
      <trkpt lat="44.31895" lon="2.65934">
        <ele>741.7944336</ele>
        <time>2014-06-28T05:56:32Z</time>
      </trkpt>
      <trkpt lat="44.31902" lon="2.65923">
        <ele>740.8330078</ele>
        <time>2014-06-28T05:56:36Z</time>
      </trkpt>
      <trkpt lat="44.31908" lon="2.65911">
        <ele>740.3525391</ele>
        <time>2014-06-28T05:56:40Z</time>
      </trkpt>
      <trkpt lat="44.31917" lon="2.65897">
        <ele>737.9492188</ele>
        <time>2014-06-28T05:56:45Z</time>
      </trkpt>
      <trkpt lat="44.31926" lon="2.65882">
        <ele>735.5458984</ele>
        <time>2014-06-28T05:56:50Z</time>
      </trkpt>
      <trkpt lat="44.31934" lon="2.65867">
        <ele>734.1040039</ele>
        <time>2014-06-28T05:56:55Z</time>
      </trkpt>
      <trkpt lat="44.31943" lon="2.65854">
        <ele>731.7004395</ele>
        <time>2014-06-28T05:57:00Z</time>
      </trkpt>
      <trkpt lat="44.3195" lon="2.65842">
        <ele>730.2585449</ele>
        <time>2014-06-28T05:57:05Z</time>
      </trkpt>
      <trkpt lat="44.31956" lon="2.65831">
        <ele>730.2585449</ele>
        <time>2014-06-28T05:57:09Z</time>
      </trkpt>
      <trkpt lat="44.31964" lon="2.65817">
        <ele>729.2971191</ele>
        <time>2014-06-28T05:57:14Z</time>
      </trkpt>
      <trkpt lat="44.31974" lon="2.65797">
        <ele>729.2971191</ele>
        <time>2014-06-28T05:57:21Z</time>
      </trkpt>
      <trkpt lat="44.31981" lon="2.65785">
        <ele>728.8166504</ele>
        <time>2014-06-28T05:57:25Z</time>
      </trkpt>
      <trkpt lat="44.31985" lon="2.65776">
        <ele>729.2971191</ele>
        <time>2014-06-28T05:57:28Z</time>
      </trkpt>
      <trkpt lat="44.31989" lon="2.65761">
        <ele>729.2971191</ele>
        <time>2014-06-28T05:57:33Z</time>
      </trkpt>
      <trkpt lat="44.3199" lon="2.65758">
        <ele>729.2971191</ele>
        <time>2014-06-28T05:57:34Z</time>
      </trkpt>
      <trkpt lat="44.31997" lon="2.65738">
        <ele>730.2585449</ele>
        <time>2014-06-28T05:57:40Z</time>
      </trkpt>
      <trkpt lat="44.32" lon="2.65725">
        <ele>730.7392578</ele>
        <time>2014-06-28T05:57:44Z</time>
      </trkpt>
      <trkpt lat="44.32002" lon="2.65718">
        <ele>730.7392578</ele>
        <time>2014-06-28T05:57:46Z</time>
      </trkpt>
      <trkpt lat="44.32006" lon="2.65697">
        <ele>732.1813965</ele>
        <time>2014-06-28T05:57:52Z</time>
      </trkpt>
      <trkpt lat="44.32011" lon="2.65678">
        <ele>732.1813965</ele>
        <time>2014-06-28T05:57:58Z</time>
      </trkpt>
      <trkpt lat="44.32014" lon="2.65656">
        <ele>731.7004395</ele>
        <time>2014-06-28T05:58:04Z</time>
      </trkpt>
      <trkpt lat="44.32019" lon="2.65638">
        <ele>730.2585449</ele>
        <time>2014-06-28T05:58:09Z</time>
      </trkpt>
      <trkpt lat="44.32023" lon="2.65619">
        <ele>727.3747559</ele>
        <time>2014-06-28T05:58:15Z</time>
      </trkpt>
      <trkpt lat="44.32027" lon="2.65603">
        <ele>725.9326172</ele>
        <time>2014-06-28T05:58:20Z</time>
      </trkpt>
      <trkpt lat="44.32029" lon="2.65589">
        <ele>725.4519043</ele>
        <time>2014-06-28T05:58:24Z</time>
      </trkpt>
      <trkpt lat="44.32033" lon="2.65568">
        <ele>725.4519043</ele>
        <time>2014-06-28T05:58:30Z</time>
      </trkpt>
      <trkpt lat="44.32035" lon="2.65551">
        <ele>726.4133301</ele>
        <time>2014-06-28T05:58:35Z</time>
      </trkpt>
      <trkpt lat="44.32038" lon="2.65535">
        <ele>727.3747559</ele>
        <time>2014-06-28T05:58:40Z</time>
      </trkpt>
      <trkpt lat="44.3204" lon="2.65516">
        <ele>727.3747559</ele>
        <time>2014-06-28T05:58:45Z</time>
      </trkpt>
      <trkpt lat="44.32043" lon="2.65492">
        <ele>725.9326172</ele>
        <time>2014-06-28T05:58:52Z</time>
      </trkpt>
      <trkpt lat="44.32048" lon="2.65475">
        <ele>724.9714355</ele>
        <time>2014-06-28T05:58:57Z</time>
      </trkpt>
      <trkpt lat="44.32049" lon="2.65466">
        <ele>724.9714355</ele>
        <time>2014-06-28T05:58:59Z</time>
      </trkpt>
      <trkpt lat="44.32056" lon="2.65456">
        <ele>724.0100098</ele>
        <time>2014-06-28T05:59:03Z</time>
      </trkpt>
      <trkpt lat="44.32064" lon="2.65446">
        <ele>724.0100098</ele>
        <time>2014-06-28T05:59:07Z</time>
      </trkpt>
      <trkpt lat="44.32072" lon="2.65435">
        <ele>723.0488281</ele>
        <time>2014-06-28T05:59:12Z</time>
      </trkpt>
      <trkpt lat="44.32082" lon="2.65417">
        <ele>723.0488281</ele>
        <time>2014-06-28T05:59:18Z</time>
      </trkpt>
      <trkpt lat="44.32089" lon="2.65407">
        <ele>721.6066895</ele>
        <time>2014-06-28T05:59:23Z</time>
      </trkpt>
      <trkpt lat="44.32099" lon="2.65398">
        <ele>719.6843262</ele>
        <time>2014-06-28T05:59:28Z</time>
      </trkpt>
      <trkpt lat="44.32107" lon="2.65392">
        <ele>717.7614746</ele>
        <time>2014-06-28T05:59:33Z</time>
      </trkpt>
      <trkpt lat="44.32117" lon="2.65386">
        <ele>718.7229004</ele>
        <time>2014-06-28T05:59:38Z</time>
      </trkpt>
      <trkpt lat="44.32129" lon="2.65374">
        <ele>719.6843262</ele>
        <time>2014-06-28T05:59:43Z</time>
      </trkpt>
      <trkpt lat="44.32139" lon="2.65364">
        <ele>719.6843262</ele>
        <time>2014-06-28T05:59:48Z</time>
      </trkpt>
      <trkpt lat="44.32151" lon="2.65352">
        <ele>717.7614746</ele>
        <time>2014-06-28T05:59:53Z</time>
      </trkpt>
      <trkpt lat="44.32159" lon="2.65342">
        <ele>716.3195801</ele>
        <time>2014-06-28T05:59:57Z</time>
      </trkpt>
      <trkpt lat="44.3216" lon="2.65339">
        <ele>715.3581543</ele>
        <time>2014-06-28T05:59:58Z</time>
      </trkpt>
      <trkpt lat="44.32167" lon="2.6533">
        <ele>714.3967285</ele>
        <time>2014-06-28T06:00:02Z</time>
      </trkpt>
      <trkpt lat="44.32179" lon="2.65319">
        <ele>710.5515137</ele>
        <time>2014-06-28T06:00:08Z</time>
      </trkpt>
      <trkpt lat="44.32187" lon="2.65306">
        <ele>707.1870117</ele>
        <time>2014-06-28T06:00:13Z</time>
      </trkpt>
      <trkpt lat="44.32192" lon="2.65294">
        <ele>705.2644043</ele>
        <time>2014-06-28T06:00:17Z</time>
      </trkpt>
      <trkpt lat="44.32202" lon="2.65282">
        <ele>701.8999023</ele>
        <time>2014-06-28T06:00:22Z</time>
      </trkpt>
      <trkpt lat="44.32212" lon="2.65269">
        <ele>700.4580078</ele>
        <time>2014-06-28T06:00:28Z</time>
      </trkpt>
      <trkpt lat="44.32224" lon="2.65251">
        <ele>699.4963379</ele>
        <time>2014-06-28T06:00:34Z</time>
      </trkpt>
      <trkpt lat="44.32236" lon="2.65234">
        <ele>694.6896973</ele>
        <time>2014-06-28T06:00:40Z</time>
      </trkpt>
      <trkpt lat="44.32243" lon="2.65221">
        <ele>693.2478027</ele>
        <time>2014-06-28T06:00:45Z</time>
      </trkpt>
      <trkpt lat="44.32251" lon="2.65212">
        <ele>690.3640137</ele>
        <time>2014-06-28T06:00:50Z</time>
      </trkpt>
      <trkpt lat="44.32259" lon="2.65205">
        <ele>686.9992676</ele>
        <time>2014-06-28T06:00:54Z</time>
      </trkpt>
      <trkpt lat="44.3227" lon="2.65197">
        <ele>685.557373</ele>
        <time>2014-06-28T06:00:59Z</time>
      </trkpt>
      <trkpt lat="44.32277" lon="2.65195">
        <ele>683.6345215</ele>
        <time>2014-06-28T06:01:03Z</time>
      </trkpt>
      <trkpt lat="44.3229" lon="2.65189">
        <ele>679.7893066</ele>
        <time>2014-06-28T06:01:09Z</time>
      </trkpt>
      <trkpt lat="44.32303" lon="2.65181">
        <ele>678.828125</ele>
        <time>2014-06-28T06:01:14Z</time>
      </trkpt>
      <trkpt lat="44.32314" lon="2.65179">
        <ele>679.3085938</ele>
        <time>2014-06-28T06:01:18Z</time>
      </trkpt>
      <trkpt lat="44.32324" lon="2.65184">
        <ele>677.3862305</ele>
        <time>2014-06-28T06:01:23Z</time>
      </trkpt>
      <trkpt lat="44.32326" lon="2.65186">
        <ele>677.3862305</ele>
        <time>2014-06-28T06:01:24Z</time>
      </trkpt>
      <trkpt lat="44.32335" lon="2.65189">
        <ele>676.4248047</ele>
        <time>2014-06-28T06:01:29Z</time>
      </trkpt>
      <trkpt lat="44.32341" lon="2.6518">
        <ele>676.4248047</ele>
        <time>2014-06-28T06:01:32Z</time>
      </trkpt>
      <trkpt lat="44.32352" lon="2.65166">
        <ele>675.4633789</ele>
        <time>2014-06-28T06:01:37Z</time>
      </trkpt>
      <trkpt lat="44.32361" lon="2.65167">
        <ele>676.4248047</ele>
        <time>2014-06-28T06:01:42Z</time>
      </trkpt>
      <trkpt lat="44.32365" lon="2.65172">
        <ele>676.4248047</ele>
        <time>2014-06-28T06:01:44Z</time>
      </trkpt>
      <trkpt lat="44.32368" lon="2.65177">
        <ele>675.9440918</ele>
        <time>2014-06-28T06:01:46Z</time>
      </trkpt>
      <trkpt lat="44.32373" lon="2.65179">
        <ele>674.9829102</ele>
        <time>2014-06-28T06:01:51Z</time>
      </trkpt>
      <trkpt lat="44.32374" lon="2.65178">
        <ele>674.5021973</ele>
        <time>2014-06-28T06:01:52Z</time>
      </trkpt>
      <trkpt lat="44.32378" lon="2.65172">
        <ele>674.9829102</ele>
        <time>2014-06-28T06:01:57Z</time>
      </trkpt>
      <trkpt lat="44.3238" lon="2.65167">
        <ele>674.5021973</ele>
        <time>2014-06-28T06:02:00Z</time>
      </trkpt>
      <trkpt lat="44.3238" lon="2.65153">
        <ele>670.6569824</ele>
        <time>2014-06-28T06:02:07Z</time>
      </trkpt>
      <trkpt lat="44.32382" lon="2.65142">
        <ele>668.2536621</ele>
        <time>2014-06-28T06:02:11Z</time>
      </trkpt>
      <trkpt lat="44.32384" lon="2.65141">
        <ele>667.2922363</ele>
        <time>2014-06-28T06:02:13Z</time>
      </trkpt>
      <trkpt lat="44.32393" lon="2.65132">
        <ele>664.888916</ele>
        <time>2014-06-28T06:02:19Z</time>
      </trkpt>
      <trkpt lat="44.32399" lon="2.6512">
        <ele>663.9274902</ele>
        <time>2014-06-28T06:02:23Z</time>
      </trkpt>
      <trkpt lat="44.324" lon="2.65117">
        <ele>663.9274902</ele>
        <time>2014-06-28T06:02:24Z</time>
      </trkpt>
      <trkpt lat="44.32404" lon="2.6511">
        <ele>664.888916</ele>
        <time>2014-06-28T06:02:29Z</time>
      </trkpt>
      <trkpt lat="44.3241" lon="2.651">
        <ele>662.9663086</ele>
        <time>2014-06-28T06:02:36Z</time>
      </trkpt>
      <trkpt lat="44.32412" lon="2.65093">
        <ele>662.4855957</ele>
        <time>2014-06-28T06:02:40Z</time>
      </trkpt>
      <trkpt lat="44.32414" lon="2.65086">
        <ele>661.0437012</ele>
        <time>2014-06-28T06:02:44Z</time>
      </trkpt>
      <trkpt lat="44.32417" lon="2.65078">
        <ele>661.0437012</ele>
        <time>2014-06-28T06:02:49Z</time>
      </trkpt>
      <trkpt lat="44.32419" lon="2.65074">
        <ele>661.0437012</ele>
        <time>2014-06-28T06:02:51Z</time>
      </trkpt>
      <trkpt lat="44.32423" lon="2.65061">
        <ele>660.5629883</ele>
        <time>2014-06-28T06:02:58Z</time>
      </trkpt>
      <trkpt lat="44.32427" lon="2.65047">
        <ele>660.5629883</ele>
        <time>2014-06-28T06:03:05Z</time>
      </trkpt>
      <trkpt lat="44.32431" lon="2.65033">
        <ele>659.6018066</ele>
        <time>2014-06-28T06:03:10Z</time>
      </trkpt>
      <trkpt lat="44.32437" lon="2.65019">
        <ele>657.6791992</ele>
        <time>2014-06-28T06:03:15Z</time>
      </trkpt>
      <trkpt lat="44.32444" lon="2.65007">
        <ele>656.2370605</ele>
        <time>2014-06-28T06:03:20Z</time>
      </trkpt>
      <trkpt lat="44.3245" lon="2.64995">
        <ele>656.2370605</ele>
        <time>2014-06-28T06:03:25Z</time>
      </trkpt>
      <trkpt lat="44.32454" lon="2.64982">
        <ele>657.1984863</ele>
        <time>2014-06-28T06:03:29Z</time>
      </trkpt>
      <trkpt lat="44.32464" lon="2.6496">
        <ele>649.9885254</ele>
        <time>2014-06-28T06:03:36Z</time>
      </trkpt>
      <trkpt lat="44.32473" lon="2.64944">
        <ele>651.9111328</ele>
        <time>2014-06-28T06:03:42Z</time>
      </trkpt>
      <trkpt lat="44.32481" lon="2.64926">
        <ele>655.2758789</ele>
        <time>2014-06-28T06:03:48Z</time>
      </trkpt>
      <trkpt lat="44.32486" lon="2.64914">
        <ele>657.1984863</ele>
        <time>2014-06-28T06:03:53Z</time>
      </trkpt>
      <trkpt lat="44.32492" lon="2.64902">
        <ele>655.2758789</ele>
        <time>2014-06-28T06:03:58Z</time>
      </trkpt>
      <trkpt lat="44.32494" lon="2.64895">
        <ele>651.4304199</ele>
        <time>2014-06-28T06:04:00Z</time>
      </trkpt>
      <trkpt lat="44.32507" lon="2.64881">
        <ele>652.8725586</ele>
        <time>2014-06-28T06:04:06Z</time>
      </trkpt>
      <trkpt lat="44.32518" lon="2.64872">
        <ele>651.9111328</ele>
        <time>2014-06-28T06:04:12Z</time>
      </trkpt>
      <trkpt lat="44.32528" lon="2.64865">
        <ele>651.4304199</ele>
        <time>2014-06-28T06:04:17Z</time>
      </trkpt>
      <trkpt lat="44.32534" lon="2.64861">
        <ele>650.4692383</ele>
        <time>2014-06-28T06:04:21Z</time>
      </trkpt>
      <trkpt lat="44.32537" lon="2.64858">
        <ele>649.9885254</ele>
        <time>2014-06-28T06:04:25Z</time>
      </trkpt>
      <trkpt lat="44.32538" lon="2.64857">
        <ele>649.0270996</ele>
        <time>2014-06-28T06:04:27Z</time>
      </trkpt>
      <trkpt lat="44.32545" lon="2.64851">
        <ele>648.5463867</ele>
        <time>2014-06-28T06:04:33Z</time>
      </trkpt>
      <trkpt lat="44.3255" lon="2.64847">
        <ele>648.065918</ele>
        <time>2014-06-28T06:04:37Z</time>
      </trkpt>
      <trkpt lat="44.32553" lon="2.64843">
        <ele>647.5852051</ele>
        <time>2014-06-28T06:04:39Z</time>
      </trkpt>
      <trkpt lat="44.32562" lon="2.64836">
        <ele>645.1818848</ele>
        <time>2014-06-28T06:04:44Z</time>
      </trkpt>
      <trkpt lat="44.32574" lon="2.64827">
        <ele>643.2592773</ele>
        <time>2014-06-28T06:04:50Z</time>
      </trkpt>
      <trkpt lat="44.32575" lon="2.64826">
        <ele>642.7788086</ele>
        <time>2014-06-28T06:04:51Z</time>
      </trkpt>
      <trkpt lat="44.32586" lon="2.64818">
        <ele>643.7399902</ele>
        <time>2014-06-28T06:04:57Z</time>
      </trkpt>
      <trkpt lat="44.32592" lon="2.64813">
        <ele>643.2592773</ele>
        <time>2014-06-28T06:05:00Z</time>
      </trkpt>
      <trkpt lat="44.32604" lon="2.64801">
        <ele>646.1433105</ele>
        <time>2014-06-28T06:05:06Z</time>
      </trkpt>
      <trkpt lat="44.32612" lon="2.64798">
        <ele>646.6240234</ele>
        <time>2014-06-28T06:05:09Z</time>
      </trkpt>
      <trkpt lat="44.32623" lon="2.64792">
        <ele>645.6625977</ele>
        <time>2014-06-28T06:05:14Z</time>
      </trkpt>
      <trkpt lat="44.32633" lon="2.64787">
        <ele>645.1818848</ele>
        <time>2014-06-28T06:05:19Z</time>
      </trkpt>
      <trkpt lat="44.32638" lon="2.64785">
        <ele>645.1818848</ele>
        <time>2014-06-28T06:05:21Z</time>
      </trkpt>
      <trkpt lat="44.32657" lon="2.64781">
        <ele>642.7788086</ele>
        <time>2014-06-28T06:05:29Z</time>
      </trkpt>
      <trkpt lat="44.32668" lon="2.64782">
        <ele>641.8173828</ele>
        <time>2014-06-28T06:05:34Z</time>
      </trkpt>
      <trkpt lat="44.32675" lon="2.64781">
        <ele>641.3366699</ele>
        <time>2014-06-28T06:05:38Z</time>
      </trkpt>
      <trkpt lat="44.3269" lon="2.64777">
        <ele>643.7399902</ele>
        <time>2014-06-28T06:05:44Z</time>
      </trkpt>
      <trkpt lat="44.32697" lon="2.64779">
        <ele>641.8173828</ele>
        <time>2014-06-28T06:05:47Z</time>
      </trkpt>
      <trkpt lat="44.32711" lon="2.64785">
        <ele>642.7788086</ele>
        <time>2014-06-28T06:05:52Z</time>
      </trkpt>
      <trkpt lat="44.32726" lon="2.64785">
        <ele>642.2980957</ele>
        <time>2014-06-28T06:05:59Z</time>
      </trkpt>
      <trkpt lat="44.32743" lon="2.64788">
        <ele>643.7399902</ele>
        <time>2014-06-28T06:06:06Z</time>
      </trkpt>
      <trkpt lat="44.32754" lon="2.64789">
        <ele>644.7011719</ele>
        <time>2014-06-28T06:06:11Z</time>
      </trkpt>
      <trkpt lat="44.3277" lon="2.64789">
        <ele>647.1044922</ele>
        <time>2014-06-28T06:06:19Z</time>
      </trkpt>
      <trkpt lat="44.32783" lon="2.6479">
        <ele>649.0270996</ele>
        <time>2014-06-28T06:06:25Z</time>
      </trkpt>
      <trkpt lat="44.32798" lon="2.64792">
        <ele>650.949707</ele>
        <time>2014-06-28T06:06:32Z</time>
      </trkpt>
      <trkpt lat="44.32811" lon="2.64796">
        <ele>652.8725586</ele>
        <time>2014-06-28T06:06:38Z</time>
      </trkpt>
      <trkpt lat="44.32823" lon="2.64802">
        <ele>652.3918457</ele>
        <time>2014-06-28T06:06:44Z</time>
      </trkpt>
      <trkpt lat="44.32837" lon="2.64803">
        <ele>652.3918457</ele>
        <time>2014-06-28T06:06:51Z</time>
      </trkpt>
      <trkpt lat="44.32848" lon="2.64802">
        <ele>651.9111328</ele>
        <time>2014-06-28T06:06:56Z</time>
      </trkpt>
      <trkpt lat="44.32859" lon="2.64805">
        <ele>652.3918457</ele>
        <time>2014-06-28T06:07:01Z</time>
      </trkpt>
      <trkpt lat="44.32864" lon="2.64806">
        <ele>653.8339844</ele>
        <time>2014-06-28T06:07:03Z</time>
      </trkpt>
      <trkpt lat="44.32878" lon="2.64808">
        <ele>655.7565918</ele>
        <time>2014-06-28T06:07:10Z</time>
      </trkpt>
      <trkpt lat="44.32895" lon="2.64814">
        <ele>655.7565918</ele>
        <time>2014-06-28T06:07:18Z</time>
      </trkpt>
      <trkpt lat="44.32907" lon="2.64816">
        <ele>657.6791992</ele>
        <time>2014-06-28T06:07:23Z</time>
      </trkpt>
      <trkpt lat="44.32921" lon="2.64819">
        <ele>657.1984863</ele>
        <time>2014-06-28T06:07:29Z</time>
      </trkpt>
      <trkpt lat="44.32934" lon="2.64822">
        <ele>658.6403809</ele>
        <time>2014-06-28T06:07:34Z</time>
      </trkpt>
      <trkpt lat="44.32947" lon="2.64825">
        <ele>659.6018066</ele>
        <time>2014-06-28T06:07:40Z</time>
      </trkpt>
      <trkpt lat="44.32964" lon="2.64829">
        <ele>660.0822754</ele>
        <time>2014-06-28T06:07:47Z</time>
      </trkpt>
      <trkpt lat="44.32981" lon="2.64833">
        <ele>663.4470215</ele>
        <time>2014-06-28T06:07:54Z</time>
      </trkpt>
      <trkpt lat="44.32994" lon="2.64836">
        <ele>665.3696289</ele>
        <time>2014-06-28T06:07:59Z</time>
      </trkpt>
      <trkpt lat="44.33002" lon="2.64837">
        <ele>664.888916</ele>
        <time>2014-06-28T06:08:03Z</time>
      </trkpt>
      <trkpt lat="44.33018" lon="2.64841">
        <ele>666.8115234</ele>
        <time>2014-06-28T06:08:10Z</time>
      </trkpt>
      <trkpt lat="44.33028" lon="2.64842">
        <ele>667.2922363</ele>
        <time>2014-06-28T06:08:14Z</time>
      </trkpt>
      <trkpt lat="44.33036" lon="2.64844">
        <ele>666.8115234</ele>
        <time>2014-06-28T06:08:18Z</time>
      </trkpt>
      <trkpt lat="44.33055" lon="2.64845">
        <ele>667.7727051</ele>
        <time>2014-06-28T06:08:26Z</time>
      </trkpt>
      <trkpt lat="44.33063" lon="2.64838">
        <ele>669.6958008</ele>
        <time>2014-06-28T06:08:30Z</time>
      </trkpt>
      <trkpt lat="44.33067" lon="2.64825">
        <ele>671.1376953</ele>
        <time>2014-06-28T06:08:35Z</time>
      </trkpt>
      <trkpt lat="44.33068" lon="2.6482">
        <ele>671.6181641</ele>
        <time>2014-06-28T06:08:37Z</time>
      </trkpt>
      <trkpt lat="44.33069" lon="2.64811">
        <ele>672.098877</ele>
        <time>2014-06-28T06:08:40Z</time>
      </trkpt>
      <trkpt lat="44.3307" lon="2.64787">
        <ele>673.0603027</ele>
        <time>2014-06-28T06:08:47Z</time>
      </trkpt>
      <trkpt lat="44.33072" lon="2.64769">
        <ele>674.5021973</ele>
        <time>2014-06-28T06:08:53Z</time>
      </trkpt>
      <trkpt lat="44.33073" lon="2.64754">
        <ele>675.4633789</ele>
        <time>2014-06-28T06:08:58Z</time>
      </trkpt>
      <trkpt lat="44.33073" lon="2.64739">
        <ele>675.9440918</ele>
        <time>2014-06-28T06:09:02Z</time>
      </trkpt>
      <trkpt lat="44.33078" lon="2.64721">
        <ele>676.9055176</ele>
        <time>2014-06-28T06:09:08Z</time>
      </trkpt>
      <trkpt lat="44.33082" lon="2.647">
        <ele>676.9055176</ele>
        <time>2014-06-28T06:09:14Z</time>
      </trkpt>
      <trkpt lat="44.33085" lon="2.64686">
        <ele>676.4248047</ele>
        <time>2014-06-28T06:09:18Z</time>
      </trkpt>
      <trkpt lat="44.33087" lon="2.64672">
        <ele>675.4633789</ele>
        <time>2014-06-28T06:09:22Z</time>
      </trkpt>
      <trkpt lat="44.3309" lon="2.64652">
        <ele>674.9829102</ele>
        <time>2014-06-28T06:09:28Z</time>
      </trkpt>
      <trkpt lat="44.33093" lon="2.64635">
        <ele>674.5021973</ele>
        <time>2014-06-28T06:09:33Z</time>
      </trkpt>
      <trkpt lat="44.33098" lon="2.64619">
        <ele>674.5021973</ele>
        <time>2014-06-28T06:09:38Z</time>
      </trkpt>
      <trkpt lat="44.33099" lon="2.64598">
        <ele>674.5021973</ele>
        <time>2014-06-28T06:09:44Z</time>
      </trkpt>
      <trkpt lat="44.33104" lon="2.64579">
        <ele>674.5021973</ele>
        <time>2014-06-28T06:09:50Z</time>
      </trkpt>
      <trkpt lat="44.33115" lon="2.64564">
        <ele>674.9829102</ele>
        <time>2014-06-28T06:09:56Z</time>
      </trkpt>
      <trkpt lat="44.33116" lon="2.64561">
        <ele>674.9829102</ele>
        <time>2014-06-28T06:09:57Z</time>
      </trkpt>
      <trkpt lat="44.33121" lon="2.64549">
        <ele>674.5021973</ele>
        <time>2014-06-28T06:10:01Z</time>
      </trkpt>
      <trkpt lat="44.33124" lon="2.6454">
        <ele>674.5021973</ele>
        <time>2014-06-28T06:10:04Z</time>
      </trkpt>
      <trkpt lat="44.3313" lon="2.6452">
        <ele>674.5021973</ele>
        <time>2014-06-28T06:10:10Z</time>
      </trkpt>
      <trkpt lat="44.33135" lon="2.64502">
        <ele>674.0214844</ele>
        <time>2014-06-28T06:10:15Z</time>
      </trkpt>
      <trkpt lat="44.3314" lon="2.64484">
        <ele>673.0603027</ele>
        <time>2014-06-28T06:10:20Z</time>
      </trkpt>
      <trkpt lat="44.33147" lon="2.64468">
        <ele>671.6181641</ele>
        <time>2014-06-28T06:10:25Z</time>
      </trkpt>
      <trkpt lat="44.3315" lon="2.64463">
        <ele>671.6181641</ele>
        <time>2014-06-28T06:10:27Z</time>
      </trkpt>
      <trkpt lat="44.33155" lon="2.64448">
        <ele>671.6181641</ele>
        <time>2014-06-28T06:10:32Z</time>
      </trkpt>
      <trkpt lat="44.33158" lon="2.64427">
        <ele>670.6569824</ele>
        <time>2014-06-28T06:10:38Z</time>
      </trkpt>
      <trkpt lat="44.33162" lon="2.64406">
        <ele>670.1762695</ele>
        <time>2014-06-28T06:10:44Z</time>
      </trkpt>
      <trkpt lat="44.33165" lon="2.6439">
        <ele>670.1762695</ele>
        <time>2014-06-28T06:10:49Z</time>
      </trkpt>
      <trkpt lat="44.33171" lon="2.64374">
        <ele>670.1762695</ele>
        <time>2014-06-28T06:10:54Z</time>
      </trkpt>
      <trkpt lat="44.33172" lon="2.64371">
        <ele>670.6569824</ele>
        <time>2014-06-28T06:10:55Z</time>
      </trkpt>
      <trkpt lat="44.33179" lon="2.6435">
        <ele>670.1762695</ele>
        <time>2014-06-28T06:11:02Z</time>
      </trkpt>
      <trkpt lat="44.33185" lon="2.64334">
        <ele>670.1762695</ele>
        <time>2014-06-28T06:11:07Z</time>
      </trkpt>
      <trkpt lat="44.33193" lon="2.64317">
        <ele>670.1762695</ele>
        <time>2014-06-28T06:11:13Z</time>
      </trkpt>
      <trkpt lat="44.33197" lon="2.64303">
        <ele>669.2150879</ele>
        <time>2014-06-28T06:11:17Z</time>
      </trkpt>
      <trkpt lat="44.33203" lon="2.64288">
        <ele>668.734375</ele>
        <time>2014-06-28T06:11:22Z</time>
      </trkpt>
      <trkpt lat="44.33206" lon="2.64278">
        <ele>667.7727051</ele>
        <time>2014-06-28T06:11:25Z</time>
      </trkpt>
      <trkpt lat="44.33216" lon="2.64258">
        <ele>667.2922363</ele>
        <time>2014-06-28T06:11:32Z</time>
      </trkpt>
      <trkpt lat="44.33223" lon="2.64241">
        <ele>668.2536621</ele>
        <time>2014-06-28T06:11:38Z</time>
      </trkpt>
      <trkpt lat="44.33231" lon="2.64222">
        <ele>668.734375</ele>
        <time>2014-06-28T06:11:44Z</time>
      </trkpt>
      <trkpt lat="44.33238" lon="2.64204">
        <ele>670.6569824</ele>
        <time>2014-06-28T06:11:50Z</time>
      </trkpt>
      <trkpt lat="44.33246" lon="2.64186">
        <ele>670.6569824</ele>
        <time>2014-06-28T06:11:56Z</time>
      </trkpt>
      <trkpt lat="44.33252" lon="2.64162">
        <ele>670.1762695</ele>
        <time>2014-06-28T06:12:03Z</time>
      </trkpt>
      <trkpt lat="44.33256" lon="2.64134">
        <ele>669.6958008</ele>
        <time>2014-06-28T06:12:11Z</time>
      </trkpt>
      <trkpt lat="44.33261" lon="2.64113">
        <ele>668.734375</ele>
        <time>2014-06-28T06:12:17Z</time>
      </trkpt>
      <trkpt lat="44.33265" lon="2.64097">
        <ele>668.2536621</ele>
        <time>2014-06-28T06:12:22Z</time>
      </trkpt>
      <trkpt lat="44.33269" lon="2.64076">
        <ele>667.2922363</ele>
        <time>2014-06-28T06:12:28Z</time>
      </trkpt>
      <trkpt lat="44.33271" lon="2.64057">
        <ele>666.8115234</ele>
        <time>2014-06-28T06:12:33Z</time>
      </trkpt>
      <trkpt lat="44.33272" lon="2.64036">
        <ele>666.3308105</ele>
        <time>2014-06-28T06:12:39Z</time>
      </trkpt>
      <trkpt lat="44.33276" lon="2.64013">
        <ele>665.3696289</ele>
        <time>2014-06-28T06:12:46Z</time>
      </trkpt>
      <trkpt lat="44.33282" lon="2.63994">
        <ele>663.9274902</ele>
        <time>2014-06-28T06:12:52Z</time>
      </trkpt>
      <trkpt lat="44.33285" lon="2.63977">
        <ele>662.9663086</ele>
        <time>2014-06-28T06:12:57Z</time>
      </trkpt>
      <trkpt lat="44.33287" lon="2.63973">
        <ele>662.4855957</ele>
        <time>2014-06-28T06:13:01Z</time>
      </trkpt>
      <trkpt lat="44.33289" lon="2.63964">
        <ele>662.4855957</ele>
        <time>2014-06-28T06:13:07Z</time>
      </trkpt>
      <trkpt lat="44.33291" lon="2.6395">
        <ele>662.005127</ele>
        <time>2014-06-28T06:13:11Z</time>
      </trkpt>
      <trkpt lat="44.33293" lon="2.63937">
        <ele>661.5244141</ele>
        <time>2014-06-28T06:13:15Z</time>
      </trkpt>
      <trkpt lat="44.33297" lon="2.6392">
        <ele>660.0822754</ele>
        <time>2014-06-28T06:13:20Z</time>
      </trkpt>
      <trkpt lat="44.33301" lon="2.63903">
        <ele>659.1210938</ele>
        <time>2014-06-28T06:13:25Z</time>
      </trkpt>
      <trkpt lat="44.33306" lon="2.63885">
        <ele>659.1210938</ele>
        <time>2014-06-28T06:13:30Z</time>
      </trkpt>
      <trkpt lat="44.3331" lon="2.6387">
        <ele>658.6403809</ele>
        <time>2014-06-28T06:13:34Z</time>
      </trkpt>
      <trkpt lat="44.33315" lon="2.6385">
        <ele>658.1599121</ele>
        <time>2014-06-28T06:13:39Z</time>
      </trkpt>
      <trkpt lat="44.33319" lon="2.63829">
        <ele>657.6791992</ele>
        <time>2014-06-28T06:13:45Z</time>
      </trkpt>
      <trkpt lat="44.33322" lon="2.6381">
        <ele>656.7177734</ele>
        <time>2014-06-28T06:13:50Z</time>
      </trkpt>
      <trkpt lat="44.33328" lon="2.63794">
        <ele>655.2758789</ele>
        <time>2014-06-28T06:13:55Z</time>
      </trkpt>
      <trkpt lat="44.33333" lon="2.63779">
        <ele>654.3146973</ele>
        <time>2014-06-28T06:13:59Z</time>
      </trkpt>
      <trkpt lat="44.33334" lon="2.63776">
        <ele>654.3146973</ele>
        <time>2014-06-28T06:14:00Z</time>
      </trkpt>
      <trkpt lat="44.33341" lon="2.63753">
        <ele>652.3918457</ele>
        <time>2014-06-28T06:14:07Z</time>
      </trkpt>
      <trkpt lat="44.33344" lon="2.63737">
        <ele>649.9885254</ele>
        <time>2014-06-28T06:14:11Z</time>
      </trkpt>
      <trkpt lat="44.33348" lon="2.63718">
        <ele>647.5852051</ele>
        <time>2014-06-28T06:14:16Z</time>
      </trkpt>
      <trkpt lat="44.33353" lon="2.63701">
        <ele>645.6625977</ele>
        <time>2014-06-28T06:14:21Z</time>
      </trkpt>
      <trkpt lat="44.33354" lon="2.63697">
        <ele>645.6625977</ele>
        <time>2014-06-28T06:14:22Z</time>
      </trkpt>
      <trkpt lat="44.33362" lon="2.63676">
        <ele>642.7788086</ele>
        <time>2014-06-28T06:14:28Z</time>
      </trkpt>
      <trkpt lat="44.33367" lon="2.63666">
        <ele>641.8173828</ele>
        <time>2014-06-28T06:14:31Z</time>
      </trkpt>
      <trkpt lat="44.33369" lon="2.6366">
        <ele>640.3754883</ele>
        <time>2014-06-28T06:14:33Z</time>
      </trkpt>
      <trkpt lat="44.33383" lon="2.63642">
        <ele>636.0495605</ele>
        <time>2014-06-28T06:14:40Z</time>
      </trkpt>
      <trkpt lat="44.33392" lon="2.63628">
        <ele>633.1652832</ele>
        <time>2014-06-28T06:14:45Z</time>
      </trkpt>
      <trkpt lat="44.33401" lon="2.63619">
        <ele>630.2814941</ele>
        <time>2014-06-28T06:14:49Z</time>
      </trkpt>
      <trkpt lat="44.33412" lon="2.63606">
        <ele>627.8781738</ele>
        <time>2014-06-28T06:14:54Z</time>
      </trkpt>
      <trkpt lat="44.33423" lon="2.63594">
        <ele>626.4362793</ele>
        <time>2014-06-28T06:14:59Z</time>
      </trkpt>
      <trkpt lat="44.33433" lon="2.63584">
        <ele>625.9555664</ele>
        <time>2014-06-28T06:15:04Z</time>
      </trkpt>
      <trkpt lat="44.33438" lon="2.6358">
        <ele>625.9555664</ele>
        <time>2014-06-28T06:15:07Z</time>
      </trkpt>
      <trkpt lat="44.3344" lon="2.63577">
        <ele>626.9169922</ele>
        <time>2014-06-28T06:15:14Z</time>
      </trkpt>
      <trkpt lat="44.33446" lon="2.63557">
        <ele>625.9555664</ele>
        <time>2014-06-28T06:15:20Z</time>
      </trkpt>
      <trkpt lat="44.33447" lon="2.63534">
        <ele>624.9943848</ele>
        <time>2014-06-28T06:15:26Z</time>
      </trkpt>
      <trkpt lat="44.33448" lon="2.63513">
        <ele>626.9169922</ele>
        <time>2014-06-28T06:15:32Z</time>
      </trkpt>
      <trkpt lat="44.33452" lon="2.63501">
        <ele>627.3977051</ele>
        <time>2014-06-28T06:15:36Z</time>
      </trkpt>
      <trkpt lat="44.33456" lon="2.63484">
        <ele>628.8395996</ele>
        <time>2014-06-28T06:15:41Z</time>
      </trkpt>
      <trkpt lat="44.33461" lon="2.63473">
        <ele>629.3200684</ele>
        <time>2014-06-28T06:15:45Z</time>
      </trkpt>
      <trkpt lat="44.33467" lon="2.63459">
        <ele>630.2814941</ele>
        <time>2014-06-28T06:15:50Z</time>
      </trkpt>
      <trkpt lat="44.33474" lon="2.6344">
        <ele>631.2429199</ele>
        <time>2014-06-28T06:15:57Z</time>
      </trkpt>
      <trkpt lat="44.33477" lon="2.63426">
        <ele>631.7233887</ele>
        <time>2014-06-28T06:16:02Z</time>
      </trkpt>
      <trkpt lat="44.33477" lon="2.63404">
        <ele>632.6848145</ele>
        <time>2014-06-28T06:16:08Z</time>
      </trkpt>
      <trkpt lat="44.33479" lon="2.63384">
        <ele>633.1652832</ele>
        <time>2014-06-28T06:16:14Z</time>
      </trkpt>
      <trkpt lat="44.33481" lon="2.63371">
        <ele>634.126709</ele>
        <time>2014-06-28T06:16:18Z</time>
      </trkpt>
      <trkpt lat="44.33482" lon="2.63352">
        <ele>634.6074219</ele>
        <time>2014-06-28T06:16:24Z</time>
      </trkpt>
      <trkpt lat="44.33486" lon="2.63331">
        <ele>633.6459961</ele>
        <time>2014-06-28T06:16:30Z</time>
      </trkpt>
      <trkpt lat="44.33489" lon="2.63316">
        <ele>634.6074219</ele>
        <time>2014-06-28T06:16:35Z</time>
      </trkpt>
      <trkpt lat="44.33492" lon="2.63302">
        <ele>635.0881348</ele>
        <time>2014-06-28T06:16:39Z</time>
      </trkpt>
      <trkpt lat="44.33497" lon="2.63285">
        <ele>635.5686035</ele>
        <time>2014-06-28T06:16:45Z</time>
      </trkpt>
      <trkpt lat="44.33503" lon="2.63266">
        <ele>637.4914551</ele>
        <time>2014-06-28T06:16:51Z</time>
      </trkpt>
      <trkpt lat="44.33507" lon="2.63253">
        <ele>638.9335938</ele>
        <time>2014-06-28T06:16:56Z</time>
      </trkpt>
      <trkpt lat="44.33511" lon="2.63239">
        <ele>639.8947754</ele>
        <time>2014-06-28T06:17:01Z</time>
      </trkpt>
      <trkpt lat="44.33513" lon="2.63224">
        <ele>639.4140625</ele>
        <time>2014-06-28T06:17:05Z</time>
      </trkpt>
      <trkpt lat="44.33517" lon="2.63208">
        <ele>639.8947754</ele>
        <time>2014-06-28T06:17:10Z</time>
      </trkpt>
      <trkpt lat="44.33522" lon="2.6319">
        <ele>640.3754883</ele>
        <time>2014-06-28T06:17:16Z</time>
      </trkpt>
      <trkpt lat="44.33525" lon="2.63178">
        <ele>640.855957</ele>
        <time>2014-06-28T06:17:20Z</time>
      </trkpt>
      <trkpt lat="44.3353" lon="2.6316">
        <ele>641.3366699</ele>
        <time>2014-06-28T06:17:26Z</time>
      </trkpt>
      <trkpt lat="44.33535" lon="2.63144">
        <ele>640.855957</ele>
        <time>2014-06-28T06:17:31Z</time>
      </trkpt>
      <trkpt lat="44.33541" lon="2.63129">
        <ele>641.3366699</ele>
        <time>2014-06-28T06:17:36Z</time>
      </trkpt>
      <trkpt lat="44.33549" lon="2.63113">
        <ele>642.2980957</ele>
        <time>2014-06-28T06:17:42Z</time>
      </trkpt>
      <trkpt lat="44.33553" lon="2.63098">
        <ele>643.2592773</ele>
        <time>2014-06-28T06:17:47Z</time>
      </trkpt>
      <trkpt lat="44.33556" lon="2.63081">
        <ele>644.2207031</ele>
        <time>2014-06-28T06:17:52Z</time>
      </trkpt>
      <trkpt lat="44.33557" lon="2.63062">
        <ele>645.1818848</ele>
        <time>2014-06-28T06:17:58Z</time>
      </trkpt>
      <trkpt lat="44.33559" lon="2.63044">
        <ele>646.1433105</ele>
        <time>2014-06-28T06:18:04Z</time>
      </trkpt>
      <trkpt lat="44.33559" lon="2.6304">
        <ele>646.1433105</ele>
        <time>2014-06-28T06:18:05Z</time>
      </trkpt>
      <trkpt lat="44.33563" lon="2.63034">
        <ele>645.6625977</ele>
        <time>2014-06-28T06:18:09Z</time>
      </trkpt>
      <trkpt lat="44.33564" lon="2.63033">
        <ele>646.1433105</ele>
        <time>2014-06-28T06:18:10Z</time>
      </trkpt>
      <trkpt lat="44.33567" lon="2.63031">
        <ele>646.1433105</ele>
        <time>2014-06-28T06:18:13Z</time>
      </trkpt>
      <trkpt lat="44.33568" lon="2.63025">
        <ele>648.065918</ele>
        <time>2014-06-28T06:18:19Z</time>
      </trkpt>
      <trkpt lat="44.33565" lon="2.63001">
        <ele>649.0270996</ele>
        <time>2014-06-28T06:18:26Z</time>
      </trkpt>
      <trkpt lat="44.33563" lon="2.62983">
        <ele>649.0270996</ele>
        <time>2014-06-28T06:18:31Z</time>
      </trkpt>
      <trkpt lat="44.33562" lon="2.62967">
        <ele>649.0270996</ele>
        <time>2014-06-28T06:18:36Z</time>
      </trkpt>
      <trkpt lat="44.3356" lon="2.6295">
        <ele>649.9885254</ele>
        <time>2014-06-28T06:18:42Z</time>
      </trkpt>
      <trkpt lat="44.33562" lon="2.62938">
        <ele>649.9885254</ele>
        <time>2014-06-28T06:18:47Z</time>
      </trkpt>
    </trkseg>
  </trk>
</gpx>